<?xml version="1.0" encoding="UTF-8" standalone="no" ?>
<gpx xmlns="http://www.topografix.com/GPX/1/1" xmlns:xsi="http://www.w3.org/2001/XMLSchema-instance" xsi:schemaLocation="http://www.topografix.com/GPX/1/1 http://www.topografix.com/GPX/1/1/gpx.xsd" version="1.1" creator="VisuGPX - https://www.visugpx.com">
  <metadata>
    <name>reco entrainement tignes 2011</name>
    <desc><![CDATA[Parcours sur Tignes. ]]></desc>
  </metadata>
  <wpt lat="38.85555" lon="-94.79902">
    <ele>3.01</ele>
    <name><![CDATA[GARMIN]]></name>
  </wpt>
  <wpt lat="50.98288" lon="-1.4639">
    <ele>3.01</ele>
    <name><![CDATA[GRMEUR]]></name>
  </wpt>
  <wpt lat="25.06178" lon="121.64027">
    <ele>3.01</ele>
    <name><![CDATA[GRMTWN]]></name>
  </wpt>
  <trk>
    <name><![CDATA[ACTIVE LOG: 26 JUN 2011 09:48]]></name>
    <trkseg>
      <trkpt lat="45.4017" lon="6.99206">
        <ele>2589.93</ele>
        <time>2011-06-26T07:48:48Z</time>
      </trkpt>
      <trkpt lat="45.4017" lon="6.99206">
        <ele>1395.01</ele>
        <time>2011-06-26T07:48:50Z</time>
      </trkpt>
      <trkpt lat="45.4017" lon="6.99206">
        <ele>1395.97</ele>
        <time>2011-06-26T07:49:04Z</time>
      </trkpt>
      <trkpt lat="45.4017" lon="6.99206">
        <ele>1396.93</ele>
        <time>2011-06-26T07:49:20Z</time>
      </trkpt>
      <trkpt lat="45.4017" lon="6.99206">
        <ele>1393.57</ele>
        <time>2011-06-26T07:49:29Z</time>
      </trkpt>
      <trkpt lat="45.4017" lon="6.99206">
        <ele>1396.45</ele>
        <time>2011-06-26T07:49:30Z</time>
      </trkpt>
      <trkpt lat="45.4017" lon="6.99206">
        <ele>1394.53</ele>
        <time>2011-06-26T07:49:33Z</time>
      </trkpt>
      <trkpt lat="45.4017" lon="6.99206">
        <ele>1390.68</ele>
        <time>2011-06-26T07:49:44Z</time>
      </trkpt>
      <trkpt lat="45.4017" lon="6.99206">
        <ele>1391.17</ele>
        <time>2011-06-26T07:50:08Z</time>
      </trkpt>
      <trkpt lat="45.53234" lon="6.90969">
        <ele>1398.37</ele>
        <time>2011-06-26T07:50:10Z</time>
      </trkpt>
      <trkpt lat="45.53232" lon="6.90969">
        <ele>1402.7</ele>
        <time>2011-06-26T07:50:11Z</time>
      </trkpt>
      <trkpt lat="45.5323" lon="6.90969">
        <ele>1407.51</ele>
        <time>2011-06-26T07:50:12Z</time>
      </trkpt>
      <trkpt lat="45.53228" lon="6.9097">
        <ele>1411.83</ele>
        <time>2011-06-26T07:50:13Z</time>
      </trkpt>
      <trkpt lat="45.53224" lon="6.90973">
        <ele>1416.64</ele>
        <time>2011-06-26T07:50:15Z</time>
      </trkpt>
      <trkpt lat="45.53222" lon="6.90974">
        <ele>1420.97</ele>
        <time>2011-06-26T07:50:16Z</time>
      </trkpt>
      <trkpt lat="45.53219" lon="6.90975">
        <ele>1427.21</ele>
        <time>2011-06-26T07:50:18Z</time>
      </trkpt>
      <trkpt lat="45.53216" lon="6.90977">
        <ele>1433.94</ele>
        <time>2011-06-26T07:50:20Z</time>
      </trkpt>
      <trkpt lat="45.53214" lon="6.90978">
        <ele>1438.75</ele>
        <time>2011-06-26T07:50:22Z</time>
      </trkpt>
      <trkpt lat="45.53212" lon="6.90978">
        <ele>1444.52</ele>
        <time>2011-06-26T07:50:24Z</time>
      </trkpt>
      <trkpt lat="45.53208" lon="6.90976">
        <ele>1450.77</ele>
        <time>2011-06-26T07:50:27Z</time>
      </trkpt>
      <trkpt lat="45.53206" lon="6.90975">
        <ele>1454.13</ele>
        <time>2011-06-26T07:50:28Z</time>
      </trkpt>
      <trkpt lat="45.53205" lon="6.90973">
        <ele>1455.57</ele>
        <time>2011-06-26T07:50:29Z</time>
      </trkpt>
      <trkpt lat="45.53202" lon="6.90969">
        <ele>1459.42</ele>
        <time>2011-06-26T07:50:31Z</time>
      </trkpt>
      <trkpt lat="45.53197" lon="6.90964">
        <ele>1464.71</ele>
        <time>2011-06-26T07:50:34Z</time>
      </trkpt>
      <trkpt lat="45.53193" lon="6.9096">
        <ele>1467.59</ele>
        <time>2011-06-26T07:50:36Z</time>
      </trkpt>
      <trkpt lat="45.53191" lon="6.90958">
        <ele>1472.4</ele>
        <time>2011-06-26T07:50:39Z</time>
      </trkpt>
      <trkpt lat="45.5319" lon="6.90954">
        <ele>1475.76</ele>
        <time>2011-06-26T07:50:42Z</time>
      </trkpt>
      <trkpt lat="45.53189" lon="6.90952">
        <ele>1476.72</ele>
        <time>2011-06-26T07:50:43Z</time>
      </trkpt>
      <trkpt lat="45.53184" lon="6.90948">
        <ele>1480.09</ele>
        <time>2011-06-26T07:50:46Z</time>
      </trkpt>
      <trkpt lat="45.53182" lon="6.90946">
        <ele>1481.53</ele>
        <time>2011-06-26T07:50:47Z</time>
      </trkpt>
      <trkpt lat="45.53172" lon="6.90939">
        <ele>1485.37</ele>
        <time>2011-06-26T07:50:51Z</time>
      </trkpt>
      <trkpt lat="45.5317" lon="6.90936">
        <ele>1486.34</ele>
        <time>2011-06-26T07:50:52Z</time>
      </trkpt>
      <trkpt lat="45.53164" lon="6.90931">
        <ele>1486.82</ele>
        <time>2011-06-26T07:50:54Z</time>
      </trkpt>
      <trkpt lat="45.53157" lon="6.90924">
        <ele>1487.3</ele>
        <time>2011-06-26T07:50:56Z</time>
      </trkpt>
      <trkpt lat="45.53147" lon="6.90917">
        <ele>1489.22</ele>
        <time>2011-06-26T07:50:59Z</time>
      </trkpt>
      <trkpt lat="45.53134" lon="6.90912">
        <ele>1491.62</ele>
        <time>2011-06-26T07:51:03Z</time>
      </trkpt>
      <trkpt lat="45.53124" lon="6.90908">
        <ele>1492.58</ele>
        <time>2011-06-26T07:51:06Z</time>
      </trkpt>
      <trkpt lat="45.531" lon="6.90877">
        <ele>1494.99</ele>
        <time>2011-06-26T07:51:15Z</time>
      </trkpt>
      <trkpt lat="45.53087" lon="6.90856">
        <ele>1500.27</ele>
        <time>2011-06-26T07:51:23Z</time>
      </trkpt>
      <trkpt lat="45.53086" lon="6.90834">
        <ele>1500.27</ele>
        <time>2011-06-26T07:51:28Z</time>
      </trkpt>
      <trkpt lat="45.53081" lon="6.90803">
        <ele>1500.76</ele>
        <time>2011-06-26T07:51:36Z</time>
      </trkpt>
      <trkpt lat="45.53078" lon="6.90802">
        <ele>1500.76</ele>
        <time>2011-06-26T07:51:37Z</time>
      </trkpt>
      <trkpt lat="45.53042" lon="6.90815">
        <ele>1500.76</ele>
        <time>2011-06-26T07:51:49Z</time>
      </trkpt>
      <trkpt lat="45.53025" lon="6.90808">
        <ele>1501.72</ele>
        <time>2011-06-26T07:51:58Z</time>
      </trkpt>
      <trkpt lat="45.53016" lon="6.90801">
        <ele>1505.08</ele>
        <time>2011-06-26T07:52:03Z</time>
      </trkpt>
      <trkpt lat="45.53" lon="6.90794">
        <ele>1508.93</ele>
        <time>2011-06-26T07:52:14Z</time>
      </trkpt>
      <trkpt lat="45.52992" lon="6.9079">
        <ele>1509.89</ele>
        <time>2011-06-26T07:52:18Z</time>
      </trkpt>
      <trkpt lat="45.52973" lon="6.90787">
        <ele>1512.77</ele>
        <time>2011-06-26T07:52:28Z</time>
      </trkpt>
      <trkpt lat="45.52947" lon="6.90795">
        <ele>1514.21</ele>
        <time>2011-06-26T07:52:39Z</time>
      </trkpt>
      <trkpt lat="45.52927" lon="6.90806">
        <ele>1515.18</ele>
        <time>2011-06-26T07:52:49Z</time>
      </trkpt>
      <trkpt lat="45.52905" lon="6.90815">
        <ele>1519.02</ele>
        <time>2011-06-26T07:53:00Z</time>
      </trkpt>
      <trkpt lat="45.52896" lon="6.90817">
        <ele>1518.06</ele>
        <time>2011-06-26T07:53:06Z</time>
      </trkpt>
      <trkpt lat="45.52874" lon="6.90828">
        <ele>1518.54</ele>
        <time>2011-06-26T07:53:17Z</time>
      </trkpt>
      <trkpt lat="45.52867" lon="6.9085">
        <ele>1517.1</ele>
        <time>2011-06-26T07:53:26Z</time>
      </trkpt>
      <trkpt lat="45.52838" lon="6.90859">
        <ele>1519.98</ele>
        <time>2011-06-26T07:53:37Z</time>
      </trkpt>
      <trkpt lat="45.52813" lon="6.90863">
        <ele>1520.94</ele>
        <time>2011-06-26T07:53:49Z</time>
      </trkpt>
      <trkpt lat="45.52795" lon="6.90872">
        <ele>1521.9</ele>
        <time>2011-06-26T07:53:57Z</time>
      </trkpt>
      <trkpt lat="45.5278" lon="6.90864">
        <ele>1521.9</ele>
        <time>2011-06-26T07:54:07Z</time>
      </trkpt>
      <trkpt lat="45.52773" lon="6.90864">
        <ele>1522.39</ele>
        <time>2011-06-26T07:54:11Z</time>
      </trkpt>
      <trkpt lat="45.5274" lon="6.90879">
        <ele>1524.79</ele>
        <time>2011-06-26T07:54:28Z</time>
      </trkpt>
      <trkpt lat="45.52719" lon="6.90887">
        <ele>1527.67</ele>
        <time>2011-06-26T07:54:38Z</time>
      </trkpt>
      <trkpt lat="45.527" lon="6.90888">
        <ele>1529.11</ele>
        <time>2011-06-26T07:54:47Z</time>
      </trkpt>
      <trkpt lat="45.52683" lon="6.90886">
        <ele>1531.04</ele>
        <time>2011-06-26T07:54:56Z</time>
      </trkpt>
      <trkpt lat="45.52679" lon="6.9088">
        <ele>1531.04</ele>
        <time>2011-06-26T07:55:00Z</time>
      </trkpt>
      <trkpt lat="45.5266" lon="6.90878">
        <ele>1532</ele>
        <time>2011-06-26T07:55:10Z</time>
      </trkpt>
      <trkpt lat="45.52655" lon="6.90879">
        <ele>1534.88</ele>
        <time>2011-06-26T07:55:14Z</time>
      </trkpt>
      <trkpt lat="45.52639" lon="6.90878">
        <ele>1538.25</ele>
        <time>2011-06-26T07:55:27Z</time>
      </trkpt>
      <trkpt lat="45.52621" lon="6.90884">
        <ele>1540.17</ele>
        <time>2011-06-26T07:55:41Z</time>
      </trkpt>
      <trkpt lat="45.52596" lon="6.90887">
        <ele>1542.09</ele>
        <time>2011-06-26T07:55:55Z</time>
      </trkpt>
      <trkpt lat="45.52575" lon="6.90896">
        <ele>1541.61</ele>
        <time>2011-06-26T07:56:07Z</time>
      </trkpt>
      <trkpt lat="45.52556" lon="6.90903">
        <ele>1538.25</ele>
        <time>2011-06-26T07:56:16Z</time>
      </trkpt>
      <trkpt lat="45.52553" lon="6.909">
        <ele>1539.21</ele>
        <time>2011-06-26T07:56:30Z</time>
      </trkpt>
      <trkpt lat="45.52549" lon="6.909">
        <ele>1539.21</ele>
        <time>2011-06-26T07:56:33Z</time>
      </trkpt>
      <trkpt lat="45.52543" lon="6.90899">
        <ele>1540.65</ele>
        <time>2011-06-26T07:56:36Z</time>
      </trkpt>
      <trkpt lat="45.52536" lon="6.90899">
        <ele>1540.65</ele>
        <time>2011-06-26T07:56:40Z</time>
      </trkpt>
      <trkpt lat="45.52512" lon="6.9091">
        <ele>1539.69</ele>
        <time>2011-06-26T07:56:52Z</time>
      </trkpt>
      <trkpt lat="45.52488" lon="6.90923">
        <ele>1539.21</ele>
        <time>2011-06-26T07:57:03Z</time>
      </trkpt>
      <trkpt lat="45.52467" lon="6.90943">
        <ele>1537.29</ele>
        <time>2011-06-26T07:57:13Z</time>
      </trkpt>
      <trkpt lat="45.5244" lon="6.90964">
        <ele>1537.29</ele>
        <time>2011-06-26T07:57:25Z</time>
      </trkpt>
      <trkpt lat="45.52415" lon="6.90978">
        <ele>1534.88</ele>
        <time>2011-06-26T07:57:35Z</time>
      </trkpt>
      <trkpt lat="45.52409" lon="6.90979">
        <ele>1534.4</ele>
        <time>2011-06-26T07:57:37Z</time>
      </trkpt>
      <trkpt lat="45.52388" lon="6.90993">
        <ele>1533.92</ele>
        <time>2011-06-26T07:57:49Z</time>
      </trkpt>
      <trkpt lat="45.52366" lon="6.91014">
        <ele>1534.4</ele>
        <time>2011-06-26T07:58:00Z</time>
      </trkpt>
      <trkpt lat="45.52362" lon="6.91022">
        <ele>1533.92</ele>
        <time>2011-06-26T07:58:03Z</time>
      </trkpt>
      <trkpt lat="45.52344" lon="6.91035">
        <ele>1533.44</ele>
        <time>2011-06-26T07:58:12Z</time>
      </trkpt>
      <trkpt lat="45.52323" lon="6.91051">
        <ele>1533.92</ele>
        <time>2011-06-26T07:58:24Z</time>
      </trkpt>
      <trkpt lat="45.52313" lon="6.91053">
        <ele>1534.4</ele>
        <time>2011-06-26T07:58:29Z</time>
      </trkpt>
      <trkpt lat="45.52307" lon="6.91054">
        <ele>1533.44</ele>
        <time>2011-06-26T07:58:32Z</time>
      </trkpt>
      <trkpt lat="45.52287" lon="6.91066">
        <ele>1534.4</ele>
        <time>2011-06-26T07:58:43Z</time>
      </trkpt>
      <trkpt lat="45.5228" lon="6.9107">
        <ele>1533.44</ele>
        <time>2011-06-26T07:58:47Z</time>
      </trkpt>
      <trkpt lat="45.52263" lon="6.91092">
        <ele>1534.88</ele>
        <time>2011-06-26T07:58:57Z</time>
      </trkpt>
      <trkpt lat="45.52242" lon="6.91108">
        <ele>1535.84</ele>
        <time>2011-06-26T07:59:07Z</time>
      </trkpt>
      <trkpt lat="45.52232" lon="6.91112">
        <ele>1538.25</ele>
        <time>2011-06-26T07:59:14Z</time>
      </trkpt>
      <trkpt lat="45.52224" lon="6.91118">
        <ele>1537.77</ele>
        <time>2011-06-26T07:59:20Z</time>
      </trkpt>
      <trkpt lat="45.52212" lon="6.91131">
        <ele>1538.73</ele>
        <time>2011-06-26T07:59:32Z</time>
      </trkpt>
      <trkpt lat="45.52212" lon="6.91131">
        <ele>1540.17</ele>
        <time>2011-06-26T07:59:35Z</time>
      </trkpt>
      <trkpt lat="45.52201" lon="6.9114">
        <ele>1540.17</ele>
        <time>2011-06-26T07:59:45Z</time>
      </trkpt>
      <trkpt lat="45.5219" lon="6.91148">
        <ele>1543.05</ele>
        <time>2011-06-26T07:59:54Z</time>
      </trkpt>
      <trkpt lat="45.52181" lon="6.91153">
        <ele>1543.05</ele>
        <time>2011-06-26T08:00:01Z</time>
      </trkpt>
      <trkpt lat="45.52173" lon="6.91158">
        <ele>1542.57</ele>
        <time>2011-06-26T08:00:06Z</time>
      </trkpt>
      <trkpt lat="45.52144" lon="6.91176">
        <ele>1541.61</ele>
        <time>2011-06-26T08:00:19Z</time>
      </trkpt>
      <trkpt lat="45.52121" lon="6.9119">
        <ele>1540.17</ele>
        <time>2011-06-26T08:00:29Z</time>
      </trkpt>
      <trkpt lat="45.52093" lon="6.91195">
        <ele>1541.13</ele>
        <time>2011-06-26T08:00:42Z</time>
      </trkpt>
      <trkpt lat="45.5207" lon="6.91203">
        <ele>1538.73</ele>
        <time>2011-06-26T08:00:53Z</time>
      </trkpt>
      <trkpt lat="45.52047" lon="6.91208">
        <ele>1536.8</ele>
        <time>2011-06-26T08:01:03Z</time>
      </trkpt>
      <trkpt lat="45.52034" lon="6.9121">
        <ele>1534.88</ele>
        <time>2011-06-26T08:01:09Z</time>
      </trkpt>
      <trkpt lat="45.52025" lon="6.9121">
        <ele>1533.92</ele>
        <time>2011-06-26T08:01:13Z</time>
      </trkpt>
      <trkpt lat="45.52006" lon="6.91212">
        <ele>1531.04</ele>
        <time>2011-06-26T08:01:20Z</time>
      </trkpt>
      <trkpt lat="45.51993" lon="6.9122">
        <ele>1526.71</ele>
        <time>2011-06-26T08:01:25Z</time>
      </trkpt>
      <trkpt lat="45.51991" lon="6.91222">
        <ele>1526.71</ele>
        <time>2011-06-26T08:01:26Z</time>
      </trkpt>
      <trkpt lat="45.51988" lon="6.91224">
        <ele>1525.27</ele>
        <time>2011-06-26T08:01:28Z</time>
      </trkpt>
      <trkpt lat="45.51986" lon="6.91239">
        <ele>1524.31</ele>
        <time>2011-06-26T08:01:34Z</time>
      </trkpt>
      <trkpt lat="45.51989" lon="6.91246">
        <ele>1525.27</ele>
        <time>2011-06-26T08:01:37Z</time>
      </trkpt>
      <trkpt lat="45.51988" lon="6.91255">
        <ele>1525.75</ele>
        <time>2011-06-26T08:01:41Z</time>
      </trkpt>
      <trkpt lat="45.51981" lon="6.9126">
        <ele>1528.15</ele>
        <time>2011-06-26T08:01:46Z</time>
      </trkpt>
      <trkpt lat="45.51968" lon="6.91275">
        <ele>1528.63</ele>
        <time>2011-06-26T08:01:55Z</time>
      </trkpt>
      <trkpt lat="45.51964" lon="6.91278">
        <ele>1528.63</ele>
        <time>2011-06-26T08:01:57Z</time>
      </trkpt>
      <trkpt lat="45.51959" lon="6.91285">
        <ele>1529.59</ele>
        <time>2011-06-26T08:02:02Z</time>
      </trkpt>
      <trkpt lat="45.51948" lon="6.91293">
        <ele>1529.59</ele>
        <time>2011-06-26T08:02:09Z</time>
      </trkpt>
      <trkpt lat="45.51938" lon="6.9129">
        <ele>1531.04</ele>
        <time>2011-06-26T08:02:17Z</time>
      </trkpt>
      <trkpt lat="45.51936" lon="6.9129">
        <ele>1532.48</ele>
        <time>2011-06-26T08:02:20Z</time>
      </trkpt>
      <trkpt lat="45.51929" lon="6.91296">
        <ele>1533.92</ele>
        <time>2011-06-26T08:02:26Z</time>
      </trkpt>
      <trkpt lat="45.51913" lon="6.913">
        <ele>1533.44</ele>
        <time>2011-06-26T08:02:35Z</time>
      </trkpt>
      <trkpt lat="45.51911" lon="6.913">
        <ele>1532.96</ele>
        <time>2011-06-26T08:02:36Z</time>
      </trkpt>
      <trkpt lat="45.519" lon="6.91307">
        <ele>1532.48</ele>
        <time>2011-06-26T08:02:42Z</time>
      </trkpt>
      <trkpt lat="45.5188" lon="6.91317">
        <ele>1533.44</ele>
        <time>2011-06-26T08:02:53Z</time>
      </trkpt>
      <trkpt lat="45.51874" lon="6.91319">
        <ele>1533.92</ele>
        <time>2011-06-26T08:02:56Z</time>
      </trkpt>
      <trkpt lat="45.51855" lon="6.91328">
        <ele>1532</ele>
        <time>2011-06-26T08:03:06Z</time>
      </trkpt>
      <trkpt lat="45.51853" lon="6.91327">
        <ele>1530.56</ele>
        <time>2011-06-26T08:03:07Z</time>
      </trkpt>
      <trkpt lat="45.5184" lon="6.91317">
        <ele>1531.04</ele>
        <time>2011-06-26T08:03:16Z</time>
      </trkpt>
      <trkpt lat="45.51837" lon="6.91316">
        <ele>1530.56</ele>
        <time>2011-06-26T08:03:18Z</time>
      </trkpt>
      <trkpt lat="45.51827" lon="6.91313">
        <ele>1532</ele>
        <time>2011-06-26T08:03:26Z</time>
      </trkpt>
      <trkpt lat="45.51826" lon="6.91315">
        <ele>1532</ele>
        <time>2011-06-26T08:03:30Z</time>
      </trkpt>
      <trkpt lat="45.51825" lon="6.91316">
        <ele>1533.44</ele>
        <time>2011-06-26T08:03:32Z</time>
      </trkpt>
      <trkpt lat="45.51816" lon="6.9132">
        <ele>1533.92</ele>
        <time>2011-06-26T08:03:39Z</time>
      </trkpt>
      <trkpt lat="45.51813" lon="6.91321">
        <ele>1534.4</ele>
        <time>2011-06-26T08:03:41Z</time>
      </trkpt>
      <trkpt lat="45.51808" lon="6.91324">
        <ele>1535.36</ele>
        <time>2011-06-26T08:03:47Z</time>
      </trkpt>
      <trkpt lat="45.51792" lon="6.91327">
        <ele>1535.36</ele>
        <time>2011-06-26T08:03:58Z</time>
      </trkpt>
      <trkpt lat="45.51789" lon="6.91328">
        <ele>1532.96</ele>
        <time>2011-06-26T08:04:00Z</time>
      </trkpt>
      <trkpt lat="45.51785" lon="6.9133">
        <ele>1533.92</ele>
        <time>2011-06-26T08:04:02Z</time>
      </trkpt>
      <trkpt lat="45.51783" lon="6.91331">
        <ele>1538.25</ele>
        <time>2011-06-26T08:04:03Z</time>
      </trkpt>
      <trkpt lat="45.51781" lon="6.91332">
        <ele>1536.8</ele>
        <time>2011-06-26T08:04:04Z</time>
      </trkpt>
      <trkpt lat="45.51778" lon="6.91334">
        <ele>1535.84</ele>
        <time>2011-06-26T08:04:06Z</time>
      </trkpt>
      <trkpt lat="45.51777" lon="6.91335">
        <ele>1538.73</ele>
        <time>2011-06-26T08:04:07Z</time>
      </trkpt>
      <trkpt lat="45.51776" lon="6.91336">
        <ele>1535.36</ele>
        <time>2011-06-26T08:04:08Z</time>
      </trkpt>
      <trkpt lat="45.51775" lon="6.91337">
        <ele>1540.17</ele>
        <time>2011-06-26T08:04:09Z</time>
      </trkpt>
      <trkpt lat="45.51774" lon="6.91338">
        <ele>1535.84</ele>
        <time>2011-06-26T08:04:11Z</time>
      </trkpt>
      <trkpt lat="45.51773" lon="6.91338">
        <ele>1539.21</ele>
        <time>2011-06-26T08:04:12Z</time>
      </trkpt>
      <trkpt lat="45.51772" lon="6.9134">
        <ele>1537.77</ele>
        <time>2011-06-26T08:04:17Z</time>
      </trkpt>
      <trkpt lat="45.51771" lon="6.91341">
        <ele>1542.57</ele>
        <time>2011-06-26T08:04:22Z</time>
      </trkpt>
      <trkpt lat="45.5177" lon="6.91341">
        <ele>1541.61</ele>
        <time>2011-06-26T08:04:23Z</time>
      </trkpt>
      <trkpt lat="45.51769" lon="6.91343">
        <ele>1543.05</ele>
        <time>2011-06-26T08:04:26Z</time>
      </trkpt>
      <trkpt lat="45.51767" lon="6.91348">
        <ele>1544.01</ele>
        <time>2011-06-26T08:04:30Z</time>
      </trkpt>
      <trkpt lat="45.51763" lon="6.91358">
        <ele>1542.09</ele>
        <time>2011-06-26T08:04:41Z</time>
      </trkpt>
      <trkpt lat="45.51763" lon="6.91358">
        <ele>1546.42</ele>
        <time>2011-06-26T08:04:42Z</time>
      </trkpt>
      <trkpt lat="45.51761" lon="6.91358">
        <ele>1542.09</ele>
        <time>2011-06-26T08:04:44Z</time>
      </trkpt>
      <trkpt lat="45.5176" lon="6.91358">
        <ele>1544.5</ele>
        <time>2011-06-26T08:04:45Z</time>
      </trkpt>
      <trkpt lat="45.51753" lon="6.91361">
        <ele>1540.17</ele>
        <time>2011-06-26T08:04:49Z</time>
      </trkpt>
      <trkpt lat="45.51752" lon="6.91361">
        <ele>1543.53</ele>
        <time>2011-06-26T08:04:50Z</time>
      </trkpt>
      <trkpt lat="45.5175" lon="6.91362">
        <ele>1542.57</ele>
        <time>2011-06-26T08:04:51Z</time>
      </trkpt>
      <trkpt lat="45.51746" lon="6.91364">
        <ele>1544.5</ele>
        <time>2011-06-26T08:04:53Z</time>
      </trkpt>
      <trkpt lat="45.51743" lon="6.91365">
        <ele>1544.5</ele>
        <time>2011-06-26T08:04:54Z</time>
      </trkpt>
      <trkpt lat="45.51738" lon="6.91365">
        <ele>1544.98</ele>
        <time>2011-06-26T08:04:56Z</time>
      </trkpt>
      <trkpt lat="45.51728" lon="6.91364">
        <ele>1540.65</ele>
        <time>2011-06-26T08:05:00Z</time>
      </trkpt>
      <trkpt lat="45.51726" lon="6.91363">
        <ele>1544.01</ele>
        <time>2011-06-26T08:05:01Z</time>
      </trkpt>
      <trkpt lat="45.51723" lon="6.91363">
        <ele>1540.17</ele>
        <time>2011-06-26T08:05:02Z</time>
      </trkpt>
      <trkpt lat="45.51719" lon="6.91364">
        <ele>1542.09</ele>
        <time>2011-06-26T08:05:04Z</time>
      </trkpt>
      <trkpt lat="45.51716" lon="6.91366">
        <ele>1545.46</ele>
        <time>2011-06-26T08:05:06Z</time>
      </trkpt>
      <trkpt lat="45.51713" lon="6.91367">
        <ele>1542.09</ele>
        <time>2011-06-26T08:05:08Z</time>
      </trkpt>
      <trkpt lat="45.51706" lon="6.91369">
        <ele>1537.77</ele>
        <time>2011-06-26T08:05:11Z</time>
      </trkpt>
      <trkpt lat="45.51704" lon="6.9137">
        <ele>1543.53</ele>
        <time>2011-06-26T08:05:12Z</time>
      </trkpt>
      <trkpt lat="45.51699" lon="6.91373">
        <ele>1541.13</ele>
        <time>2011-06-26T08:05:14Z</time>
      </trkpt>
      <trkpt lat="45.51686" lon="6.91376">
        <ele>1541.61</ele>
        <time>2011-06-26T08:05:20Z</time>
      </trkpt>
      <trkpt lat="45.51678" lon="6.91379">
        <ele>1540.17</ele>
        <time>2011-06-26T08:05:23Z</time>
      </trkpt>
      <trkpt lat="45.51675" lon="6.9138">
        <ele>1541.61</ele>
        <time>2011-06-26T08:05:24Z</time>
      </trkpt>
      <trkpt lat="45.51666" lon="6.91386">
        <ele>1538.25</ele>
        <time>2011-06-26T08:05:31Z</time>
      </trkpt>
      <trkpt lat="45.51652" lon="6.91394">
        <ele>1542.57</ele>
        <time>2011-06-26T08:05:36Z</time>
      </trkpt>
      <trkpt lat="45.51649" lon="6.91395">
        <ele>1538.73</ele>
        <time>2011-06-26T08:05:37Z</time>
      </trkpt>
      <trkpt lat="45.51644" lon="6.91398">
        <ele>1543.05</ele>
        <time>2011-06-26T08:05:39Z</time>
      </trkpt>
      <trkpt lat="45.51641" lon="6.91399">
        <ele>1542.09</ele>
        <time>2011-06-26T08:05:40Z</time>
      </trkpt>
      <trkpt lat="45.5163" lon="6.91404">
        <ele>1544.98</ele>
        <time>2011-06-26T08:05:45Z</time>
      </trkpt>
      <trkpt lat="45.51617" lon="6.91419">
        <ele>1544.98</ele>
        <time>2011-06-26T08:05:52Z</time>
      </trkpt>
      <trkpt lat="45.51614" lon="6.91424">
        <ele>1539.69</ele>
        <time>2011-06-26T08:05:54Z</time>
      </trkpt>
      <trkpt lat="45.51612" lon="6.9143">
        <ele>1544.98</ele>
        <time>2011-06-26T08:05:56Z</time>
      </trkpt>
      <trkpt lat="45.51609" lon="6.91433">
        <ele>1545.94</ele>
        <time>2011-06-26T08:05:58Z</time>
      </trkpt>
      <trkpt lat="45.51603" lon="6.91434">
        <ele>1547.86</ele>
        <time>2011-06-26T08:06:02Z</time>
      </trkpt>
      <trkpt lat="45.51601" lon="6.91432">
        <ele>1542.09</ele>
        <time>2011-06-26T08:06:04Z</time>
      </trkpt>
      <trkpt lat="45.51601" lon="6.91431">
        <ele>1547.38</ele>
        <time>2011-06-26T08:06:05Z</time>
      </trkpt>
      <trkpt lat="45.516" lon="6.91431">
        <ele>1543.05</ele>
        <time>2011-06-26T08:06:06Z</time>
      </trkpt>
      <trkpt lat="45.51599" lon="6.91432">
        <ele>1546.42</ele>
        <time>2011-06-26T08:06:08Z</time>
      </trkpt>
      <trkpt lat="45.51597" lon="6.91436">
        <ele>1549.78</ele>
        <time>2011-06-26T08:06:12Z</time>
      </trkpt>
      <trkpt lat="45.51596" lon="6.91438">
        <ele>1545.94</ele>
        <time>2011-06-26T08:06:13Z</time>
      </trkpt>
      <trkpt lat="45.51593" lon="6.91444">
        <ele>1551.22</ele>
        <time>2011-06-26T08:06:16Z</time>
      </trkpt>
      <trkpt lat="45.51591" lon="6.91447">
        <ele>1550.26</ele>
        <time>2011-06-26T08:06:18Z</time>
      </trkpt>
      <trkpt lat="45.5159" lon="6.91447">
        <ele>1546.42</ele>
        <time>2011-06-26T08:06:19Z</time>
      </trkpt>
      <trkpt lat="45.51582" lon="6.91451">
        <ele>1554.59</ele>
        <time>2011-06-26T08:06:25Z</time>
      </trkpt>
      <trkpt lat="45.51575" lon="6.91459">
        <ele>1553.15</ele>
        <time>2011-06-26T08:06:31Z</time>
      </trkpt>
      <trkpt lat="45.51574" lon="6.9146">
        <ele>1551.22</ele>
        <time>2011-06-26T08:06:32Z</time>
      </trkpt>
      <trkpt lat="45.51563" lon="6.91471">
        <ele>1549.3</ele>
        <time>2011-06-26T08:06:41Z</time>
      </trkpt>
      <trkpt lat="45.51557" lon="6.91477">
        <ele>1551.71</ele>
        <time>2011-06-26T08:06:45Z</time>
      </trkpt>
      <trkpt lat="45.51554" lon="6.91482">
        <ele>1554.11</ele>
        <time>2011-06-26T08:06:47Z</time>
      </trkpt>
      <trkpt lat="45.51552" lon="6.91485">
        <ele>1549.3</ele>
        <time>2011-06-26T08:06:48Z</time>
      </trkpt>
      <trkpt lat="45.51551" lon="6.91487">
        <ele>1550.74</ele>
        <time>2011-06-26T08:06:49Z</time>
      </trkpt>
      <trkpt lat="45.51546" lon="6.91493">
        <ele>1553.63</ele>
        <time>2011-06-26T08:06:51Z</time>
      </trkpt>
      <trkpt lat="45.51544" lon="6.91496">
        <ele>1548.82</ele>
        <time>2011-06-26T08:06:52Z</time>
      </trkpt>
      <trkpt lat="45.5153" lon="6.91506">
        <ele>1551.71</ele>
        <time>2011-06-26T08:06:58Z</time>
      </trkpt>
      <trkpt lat="45.51527" lon="6.91506">
        <ele>1548.82</ele>
        <time>2011-06-26T08:06:59Z</time>
      </trkpt>
      <trkpt lat="45.51521" lon="6.91505">
        <ele>1553.63</ele>
        <time>2011-06-26T08:07:02Z</time>
      </trkpt>
      <trkpt lat="45.51519" lon="6.91504">
        <ele>1548.34</ele>
        <time>2011-06-26T08:07:03Z</time>
      </trkpt>
      <trkpt lat="45.51515" lon="6.91502">
        <ele>1551.71</ele>
        <time>2011-06-26T08:07:05Z</time>
      </trkpt>
      <trkpt lat="45.51501" lon="6.91493">
        <ele>1546.9</ele>
        <time>2011-06-26T08:07:12Z</time>
      </trkpt>
      <trkpt lat="45.51499" lon="6.91491">
        <ele>1553.15</ele>
        <time>2011-06-26T08:07:13Z</time>
      </trkpt>
      <trkpt lat="45.51496" lon="6.91484">
        <ele>1548.82</ele>
        <time>2011-06-26T08:07:16Z</time>
      </trkpt>
      <trkpt lat="45.51497" lon="6.91477">
        <ele>1549.3</ele>
        <time>2011-06-26T08:07:18Z</time>
      </trkpt>
      <trkpt lat="45.51497" lon="6.91474">
        <ele>1544.5</ele>
        <time>2011-06-26T08:07:19Z</time>
      </trkpt>
      <trkpt lat="45.51499" lon="6.91467">
        <ele>1545.46</ele>
        <time>2011-06-26T08:07:21Z</time>
      </trkpt>
      <trkpt lat="45.515" lon="6.91464">
        <ele>1548.82</ele>
        <time>2011-06-26T08:07:22Z</time>
      </trkpt>
      <trkpt lat="45.51501" lon="6.91458">
        <ele>1551.22</ele>
        <time>2011-06-26T08:07:24Z</time>
      </trkpt>
      <trkpt lat="45.51501" lon="6.91456">
        <ele>1548.82</ele>
        <time>2011-06-26T08:07:25Z</time>
      </trkpt>
      <trkpt lat="45.51492" lon="6.91448">
        <ele>1548.82</ele>
        <time>2011-06-26T08:07:29Z</time>
      </trkpt>
      <trkpt lat="45.5148" lon="6.91445">
        <ele>1552.19</ele>
        <time>2011-06-26T08:07:33Z</time>
      </trkpt>
      <trkpt lat="45.51477" lon="6.91444">
        <ele>1550.26</ele>
        <time>2011-06-26T08:07:34Z</time>
      </trkpt>
      <trkpt lat="45.51474" lon="6.91444">
        <ele>1545.94</ele>
        <time>2011-06-26T08:07:35Z</time>
      </trkpt>
      <trkpt lat="45.51472" lon="6.91444">
        <ele>1550.26</ele>
        <time>2011-06-26T08:07:36Z</time>
      </trkpt>
      <trkpt lat="45.51464" lon="6.91444">
        <ele>1552.19</ele>
        <time>2011-06-26T08:07:39Z</time>
      </trkpt>
      <trkpt lat="45.51461" lon="6.91444">
        <ele>1546.9</ele>
        <time>2011-06-26T08:07:40Z</time>
      </trkpt>
      <trkpt lat="45.51458" lon="6.91445">
        <ele>1550.26</ele>
        <time>2011-06-26T08:07:41Z</time>
      </trkpt>
      <trkpt lat="45.51445" lon="6.91444">
        <ele>1548.82</ele>
        <time>2011-06-26T08:07:46Z</time>
      </trkpt>
      <trkpt lat="45.5142" lon="6.91453">
        <ele>1555.07</ele>
        <time>2011-06-26T08:07:56Z</time>
      </trkpt>
      <trkpt lat="45.51418" lon="6.91454">
        <ele>1546.9</ele>
        <time>2011-06-26T08:07:57Z</time>
      </trkpt>
      <trkpt lat="45.51416" lon="6.91455">
        <ele>1551.22</ele>
        <time>2011-06-26T08:07:58Z</time>
      </trkpt>
      <trkpt lat="45.51395" lon="6.91461">
        <ele>1552.67</ele>
        <time>2011-06-26T08:08:06Z</time>
      </trkpt>
      <trkpt lat="45.51389" lon="6.91462">
        <ele>1551.22</ele>
        <time>2011-06-26T08:08:08Z</time>
      </trkpt>
      <trkpt lat="45.51365" lon="6.91466">
        <ele>1551.71</ele>
        <time>2011-06-26T08:08:18Z</time>
      </trkpt>
      <trkpt lat="45.51357" lon="6.91467">
        <ele>1548.34</ele>
        <time>2011-06-26T08:08:22Z</time>
      </trkpt>
      <trkpt lat="45.51355" lon="6.91466">
        <ele>1551.22</ele>
        <time>2011-06-26T08:08:23Z</time>
      </trkpt>
      <trkpt lat="45.51333" lon="6.9147">
        <ele>1550.74</ele>
        <time>2011-06-26T08:08:33Z</time>
      </trkpt>
      <trkpt lat="45.51309" lon="6.91476">
        <ele>1547.86</ele>
        <time>2011-06-26T08:08:44Z</time>
      </trkpt>
      <trkpt lat="45.51304" lon="6.91477">
        <ele>1552.19</ele>
        <time>2011-06-26T08:08:46Z</time>
      </trkpt>
      <trkpt lat="45.51296" lon="6.91477">
        <ele>1550.26</ele>
        <time>2011-06-26T08:08:50Z</time>
      </trkpt>
      <trkpt lat="45.51289" lon="6.91477">
        <ele>1550.26</ele>
        <time>2011-06-26T08:08:53Z</time>
      </trkpt>
      <trkpt lat="45.51279" lon="6.91479">
        <ele>1551.71</ele>
        <time>2011-06-26T08:08:58Z</time>
      </trkpt>
      <trkpt lat="45.51274" lon="6.91481">
        <ele>1550.26</ele>
        <time>2011-06-26T08:09:00Z</time>
      </trkpt>
      <trkpt lat="45.51265" lon="6.91487">
        <ele>1547.86</ele>
        <time>2011-06-26T08:09:05Z</time>
      </trkpt>
      <trkpt lat="45.51262" lon="6.9149">
        <ele>1546.9</ele>
        <time>2011-06-26T08:09:07Z</time>
      </trkpt>
      <trkpt lat="45.51258" lon="6.91493">
        <ele>1547.86</ele>
        <time>2011-06-26T08:09:10Z</time>
      </trkpt>
      <trkpt lat="45.51254" lon="6.91495">
        <ele>1547.38</ele>
        <time>2011-06-26T08:09:12Z</time>
      </trkpt>
      <trkpt lat="45.51252" lon="6.91497">
        <ele>1550.26</ele>
        <time>2011-06-26T08:09:13Z</time>
      </trkpt>
      <trkpt lat="45.51243" lon="6.91507">
        <ele>1553.63</ele>
        <time>2011-06-26T08:09:18Z</time>
      </trkpt>
      <trkpt lat="45.51237" lon="6.91513">
        <ele>1549.3</ele>
        <time>2011-06-26T08:09:21Z</time>
      </trkpt>
      <trkpt lat="45.5123" lon="6.91517">
        <ele>1544.5</ele>
        <time>2011-06-26T08:09:25Z</time>
      </trkpt>
      <trkpt lat="45.51227" lon="6.91518">
        <ele>1552.67</ele>
        <time>2011-06-26T08:09:26Z</time>
      </trkpt>
      <trkpt lat="45.51225" lon="6.9152">
        <ele>1552.67</ele>
        <time>2011-06-26T08:09:27Z</time>
      </trkpt>
      <trkpt lat="45.51219" lon="6.91525">
        <ele>1549.78</ele>
        <time>2011-06-26T08:09:30Z</time>
      </trkpt>
      <trkpt lat="45.51203" lon="6.91534">
        <ele>1553.15</ele>
        <time>2011-06-26T08:09:37Z</time>
      </trkpt>
      <trkpt lat="45.51194" lon="6.91538">
        <ele>1548.82</ele>
        <time>2011-06-26T08:09:41Z</time>
      </trkpt>
      <trkpt lat="45.51192" lon="6.91539">
        <ele>1550.74</ele>
        <time>2011-06-26T08:09:42Z</time>
      </trkpt>
      <trkpt lat="45.51188" lon="6.91541">
        <ele>1552.67</ele>
        <time>2011-06-26T08:09:44Z</time>
      </trkpt>
      <trkpt lat="45.5118" lon="6.91547">
        <ele>1551.71</ele>
        <time>2011-06-26T08:09:48Z</time>
      </trkpt>
      <trkpt lat="45.5117" lon="6.91555">
        <ele>1547.86</ele>
        <time>2011-06-26T08:09:53Z</time>
      </trkpt>
      <trkpt lat="45.51168" lon="6.91556">
        <ele>1554.11</ele>
        <time>2011-06-26T08:09:54Z</time>
      </trkpt>
      <trkpt lat="45.51164" lon="6.91558">
        <ele>1546.9</ele>
        <time>2011-06-26T08:09:56Z</time>
      </trkpt>
      <trkpt lat="45.51162" lon="6.91559">
        <ele>1548.34</ele>
        <time>2011-06-26T08:09:57Z</time>
      </trkpt>
      <trkpt lat="45.5116" lon="6.91561">
        <ele>1551.71</ele>
        <time>2011-06-26T08:09:58Z</time>
      </trkpt>
      <trkpt lat="45.51151" lon="6.91566">
        <ele>1553.63</ele>
        <time>2011-06-26T08:10:03Z</time>
      </trkpt>
      <trkpt lat="45.51147" lon="6.91569">
        <ele>1546.42</ele>
        <time>2011-06-26T08:10:05Z</time>
      </trkpt>
      <trkpt lat="45.51145" lon="6.9157">
        <ele>1550.74</ele>
        <time>2011-06-26T08:10:06Z</time>
      </trkpt>
      <trkpt lat="45.51127" lon="6.91583">
        <ele>1550.26</ele>
        <time>2011-06-26T08:10:14Z</time>
      </trkpt>
      <trkpt lat="45.51125" lon="6.91584">
        <ele>1554.59</ele>
        <time>2011-06-26T08:10:15Z</time>
      </trkpt>
      <trkpt lat="45.51123" lon="6.91585">
        <ele>1550.74</ele>
        <time>2011-06-26T08:10:16Z</time>
      </trkpt>
      <trkpt lat="45.51119" lon="6.91586">
        <ele>1549.3</ele>
        <time>2011-06-26T08:10:18Z</time>
      </trkpt>
      <trkpt lat="45.51104" lon="6.91589">
        <ele>1554.59</ele>
        <time>2011-06-26T08:10:24Z</time>
      </trkpt>
      <trkpt lat="45.51102" lon="6.9159">
        <ele>1554.11</ele>
        <time>2011-06-26T08:10:25Z</time>
      </trkpt>
      <trkpt lat="45.51091" lon="6.91596">
        <ele>1550.74</ele>
        <time>2011-06-26T08:10:30Z</time>
      </trkpt>
      <trkpt lat="45.51088" lon="6.91599">
        <ele>1548.82</ele>
        <time>2011-06-26T08:10:32Z</time>
      </trkpt>
      <trkpt lat="45.51085" lon="6.91603">
        <ele>1549.78</ele>
        <time>2011-06-26T08:10:34Z</time>
      </trkpt>
      <trkpt lat="45.51081" lon="6.9161">
        <ele>1544.5</ele>
        <time>2011-06-26T08:10:37Z</time>
      </trkpt>
      <trkpt lat="45.51079" lon="6.91612">
        <ele>1549.78</ele>
        <time>2011-06-26T08:10:38Z</time>
      </trkpt>
      <trkpt lat="45.51076" lon="6.91617">
        <ele>1552.67</ele>
        <time>2011-06-26T08:10:40Z</time>
      </trkpt>
      <trkpt lat="45.51067" lon="6.91626">
        <ele>1549.3</ele>
        <time>2011-06-26T08:10:44Z</time>
      </trkpt>
      <trkpt lat="45.51061" lon="6.91631">
        <ele>1553.63</ele>
        <time>2011-06-26T08:10:47Z</time>
      </trkpt>
      <trkpt lat="45.51059" lon="6.91632">
        <ele>1546.42</ele>
        <time>2011-06-26T08:10:48Z</time>
      </trkpt>
      <trkpt lat="45.51056" lon="6.91633">
        <ele>1553.15</ele>
        <time>2011-06-26T08:10:49Z</time>
      </trkpt>
      <trkpt lat="45.51052" lon="6.91634">
        <ele>1547.86</ele>
        <time>2011-06-26T08:10:51Z</time>
      </trkpt>
      <trkpt lat="45.51051" lon="6.91634">
        <ele>1555.55</ele>
        <time>2011-06-26T08:10:52Z</time>
      </trkpt>
      <trkpt lat="45.51048" lon="6.91635">
        <ele>1550.26</ele>
        <time>2011-06-26T08:10:53Z</time>
      </trkpt>
      <trkpt lat="45.51044" lon="6.91635">
        <ele>1549.78</ele>
        <time>2011-06-26T08:10:55Z</time>
      </trkpt>
      <trkpt lat="45.5104" lon="6.91635">
        <ele>1546.42</ele>
        <time>2011-06-26T08:10:57Z</time>
      </trkpt>
      <trkpt lat="45.51038" lon="6.91635">
        <ele>1546.42</ele>
        <time>2011-06-26T08:10:58Z</time>
      </trkpt>
      <trkpt lat="45.51035" lon="6.91635">
        <ele>1553.63</ele>
        <time>2011-06-26T08:10:59Z</time>
      </trkpt>
      <trkpt lat="45.51033" lon="6.91635">
        <ele>1547.38</ele>
        <time>2011-06-26T08:11:00Z</time>
      </trkpt>
      <trkpt lat="45.51031" lon="6.91635">
        <ele>1551.71</ele>
        <time>2011-06-26T08:11:01Z</time>
      </trkpt>
      <trkpt lat="45.51027" lon="6.91635">
        <ele>1547.86</ele>
        <time>2011-06-26T08:11:03Z</time>
      </trkpt>
      <trkpt lat="45.51025" lon="6.91636">
        <ele>1548.34</ele>
        <time>2011-06-26T08:11:04Z</time>
      </trkpt>
      <trkpt lat="45.51023" lon="6.91636">
        <ele>1552.67</ele>
        <time>2011-06-26T08:11:05Z</time>
      </trkpt>
      <trkpt lat="45.51021" lon="6.91636">
        <ele>1551.71</ele>
        <time>2011-06-26T08:11:06Z</time>
      </trkpt>
      <trkpt lat="45.51015" lon="6.91639">
        <ele>1548.34</ele>
        <time>2011-06-26T08:11:09Z</time>
      </trkpt>
      <trkpt lat="45.51013" lon="6.91639">
        <ele>1554.11</ele>
        <time>2011-06-26T08:11:10Z</time>
      </trkpt>
      <trkpt lat="45.51008" lon="6.9164">
        <ele>1548.82</ele>
        <time>2011-06-26T08:11:12Z</time>
      </trkpt>
      <trkpt lat="45.51006" lon="6.9164">
        <ele>1552.67</ele>
        <time>2011-06-26T08:11:13Z</time>
      </trkpt>
      <trkpt lat="45.51001" lon="6.9164">
        <ele>1548.82</ele>
        <time>2011-06-26T08:11:15Z</time>
      </trkpt>
      <trkpt lat="45.50999" lon="6.9164">
        <ele>1550.26</ele>
        <time>2011-06-26T08:11:16Z</time>
      </trkpt>
      <trkpt lat="45.50992" lon="6.91638">
        <ele>1546.42</ele>
        <time>2011-06-26T08:11:19Z</time>
      </trkpt>
      <trkpt lat="45.50988" lon="6.91636">
        <ele>1550.74</ele>
        <time>2011-06-26T08:11:21Z</time>
      </trkpt>
      <trkpt lat="45.50978" lon="6.91634">
        <ele>1554.11</ele>
        <time>2011-06-26T08:11:25Z</time>
      </trkpt>
      <trkpt lat="45.50976" lon="6.91634">
        <ele>1554.11</ele>
        <time>2011-06-26T08:11:26Z</time>
      </trkpt>
      <trkpt lat="45.50973" lon="6.91634">
        <ele>1549.3</ele>
        <time>2011-06-26T08:11:27Z</time>
      </trkpt>
      <trkpt lat="45.50971" lon="6.91634">
        <ele>1552.67</ele>
        <time>2011-06-26T08:11:28Z</time>
      </trkpt>
      <trkpt lat="45.50967" lon="6.91634">
        <ele>1549.78</ele>
        <time>2011-06-26T08:11:30Z</time>
      </trkpt>
      <trkpt lat="45.50955" lon="6.91637">
        <ele>1553.15</ele>
        <time>2011-06-26T08:11:35Z</time>
      </trkpt>
      <trkpt lat="45.50946" lon="6.9164">
        <ele>1545.46</ele>
        <time>2011-06-26T08:11:39Z</time>
      </trkpt>
      <trkpt lat="45.50943" lon="6.91641">
        <ele>1547.86</ele>
        <time>2011-06-26T08:11:40Z</time>
      </trkpt>
      <trkpt lat="45.50941" lon="6.91643">
        <ele>1544.5</ele>
        <time>2011-06-26T08:11:41Z</time>
      </trkpt>
      <trkpt lat="45.50939" lon="6.91644">
        <ele>1550.74</ele>
        <time>2011-06-26T08:11:42Z</time>
      </trkpt>
      <trkpt lat="45.5093" lon="6.91647">
        <ele>1546.42</ele>
        <time>2011-06-26T08:11:46Z</time>
      </trkpt>
      <trkpt lat="45.50928" lon="6.91648">
        <ele>1547.86</ele>
        <time>2011-06-26T08:11:47Z</time>
      </trkpt>
      <trkpt lat="45.50925" lon="6.9165">
        <ele>1553.15</ele>
        <time>2011-06-26T08:11:49Z</time>
      </trkpt>
      <trkpt lat="45.50923" lon="6.91651">
        <ele>1544.5</ele>
        <time>2011-06-26T08:11:50Z</time>
      </trkpt>
      <trkpt lat="45.50921" lon="6.91653">
        <ele>1550.74</ele>
        <time>2011-06-26T08:11:51Z</time>
      </trkpt>
      <trkpt lat="45.50919" lon="6.91654">
        <ele>1544.98</ele>
        <time>2011-06-26T08:11:52Z</time>
      </trkpt>
      <trkpt lat="45.50917" lon="6.91656">
        <ele>1548.34</ele>
        <time>2011-06-26T08:11:53Z</time>
      </trkpt>
      <trkpt lat="45.50915" lon="6.91657">
        <ele>1551.71</ele>
        <time>2011-06-26T08:11:54Z</time>
      </trkpt>
      <trkpt lat="45.50913" lon="6.91659">
        <ele>1547.38</ele>
        <time>2011-06-26T08:11:55Z</time>
      </trkpt>
      <trkpt lat="45.50909" lon="6.91662">
        <ele>1554.11</ele>
        <time>2011-06-26T08:11:57Z</time>
      </trkpt>
      <trkpt lat="45.50907" lon="6.91664">
        <ele>1549.3</ele>
        <time>2011-06-26T08:11:58Z</time>
      </trkpt>
      <trkpt lat="45.50905" lon="6.91666">
        <ele>1552.67</ele>
        <time>2011-06-26T08:11:59Z</time>
      </trkpt>
      <trkpt lat="45.50903" lon="6.91667">
        <ele>1547.86</ele>
        <time>2011-06-26T08:12:00Z</time>
      </trkpt>
      <trkpt lat="45.50896" lon="6.91671">
        <ele>1552.19</ele>
        <time>2011-06-26T08:12:04Z</time>
      </trkpt>
      <trkpt lat="45.50888" lon="6.91678">
        <ele>1546.9</ele>
        <time>2011-06-26T08:12:08Z</time>
      </trkpt>
      <trkpt lat="45.50886" lon="6.9168">
        <ele>1552.19</ele>
        <time>2011-06-26T08:12:09Z</time>
      </trkpt>
      <trkpt lat="45.5087" lon="6.91694">
        <ele>1547.38</ele>
        <time>2011-06-26T08:12:18Z</time>
      </trkpt>
      <trkpt lat="45.50867" lon="6.91696">
        <ele>1549.3</ele>
        <time>2011-06-26T08:12:19Z</time>
      </trkpt>
      <trkpt lat="45.50856" lon="6.91705">
        <ele>1556.51</ele>
        <time>2011-06-26T08:12:24Z</time>
      </trkpt>
      <trkpt lat="45.50853" lon="6.91707">
        <ele>1547.38</ele>
        <time>2011-06-26T08:12:25Z</time>
      </trkpt>
      <trkpt lat="45.50841" lon="6.91711">
        <ele>1550.26</ele>
        <time>2011-06-26T08:12:30Z</time>
      </trkpt>
      <trkpt lat="45.50839" lon="6.91712">
        <ele>1556.03</ele>
        <time>2011-06-26T08:12:31Z</time>
      </trkpt>
      <trkpt lat="45.50836" lon="6.91713">
        <ele>1551.71</ele>
        <time>2011-06-26T08:12:32Z</time>
      </trkpt>
      <trkpt lat="45.50824" lon="6.91721">
        <ele>1549.3</ele>
        <time>2011-06-26T08:12:38Z</time>
      </trkpt>
      <trkpt lat="45.50813" lon="6.91734">
        <ele>1553.15</ele>
        <time>2011-06-26T08:12:44Z</time>
      </trkpt>
      <trkpt lat="45.50811" lon="6.91736">
        <ele>1553.15</ele>
        <time>2011-06-26T08:12:45Z</time>
      </trkpt>
      <trkpt lat="45.50809" lon="6.91741">
        <ele>1548.82</ele>
        <time>2011-06-26T08:12:47Z</time>
      </trkpt>
      <trkpt lat="45.50808" lon="6.91743">
        <ele>1549.78</ele>
        <time>2011-06-26T08:12:48Z</time>
      </trkpt>
      <trkpt lat="45.50807" lon="6.91751">
        <ele>1554.11</ele>
        <time>2011-06-26T08:12:51Z</time>
      </trkpt>
      <trkpt lat="45.50807" lon="6.91753">
        <ele>1550.74</ele>
        <time>2011-06-26T08:12:52Z</time>
      </trkpt>
      <trkpt lat="45.50805" lon="6.91776">
        <ele>1551.22</ele>
        <time>2011-06-26T08:12:59Z</time>
      </trkpt>
      <trkpt lat="45.50804" lon="6.9178">
        <ele>1560.84</ele>
        <time>2011-06-26T08:13:00Z</time>
      </trkpt>
      <trkpt lat="45.50803" lon="6.91783">
        <ele>1554.11</ele>
        <time>2011-06-26T08:13:01Z</time>
      </trkpt>
      <trkpt lat="45.50802" lon="6.91785">
        <ele>1548.82</ele>
        <time>2011-06-26T08:13:02Z</time>
      </trkpt>
      <trkpt lat="45.508" lon="6.91788">
        <ele>1553.63</ele>
        <time>2011-06-26T08:13:03Z</time>
      </trkpt>
      <trkpt lat="45.50792" lon="6.91802">
        <ele>1554.11</ele>
        <time>2011-06-26T08:13:08Z</time>
      </trkpt>
      <trkpt lat="45.5079" lon="6.91803">
        <ele>1556.99</ele>
        <time>2011-06-26T08:13:09Z</time>
      </trkpt>
      <trkpt lat="45.50787" lon="6.91806">
        <ele>1553.15</ele>
        <time>2011-06-26T08:13:11Z</time>
      </trkpt>
      <trkpt lat="45.50786" lon="6.91808">
        <ele>1549.3</ele>
        <time>2011-06-26T08:13:12Z</time>
      </trkpt>
      <trkpt lat="45.50784" lon="6.91809">
        <ele>1555.07</ele>
        <time>2011-06-26T08:13:13Z</time>
      </trkpt>
      <trkpt lat="45.50782" lon="6.91811">
        <ele>1549.3</ele>
        <time>2011-06-26T08:13:14Z</time>
      </trkpt>
      <trkpt lat="45.50779" lon="6.91814">
        <ele>1555.55</ele>
        <time>2011-06-26T08:13:16Z</time>
      </trkpt>
      <trkpt lat="45.50775" lon="6.91818">
        <ele>1546.9</ele>
        <time>2011-06-26T08:13:18Z</time>
      </trkpt>
      <trkpt lat="45.50773" lon="6.91819">
        <ele>1556.99</ele>
        <time>2011-06-26T08:13:19Z</time>
      </trkpt>
      <trkpt lat="45.50767" lon="6.91825">
        <ele>1550.74</ele>
        <time>2011-06-26T08:13:22Z</time>
      </trkpt>
      <trkpt lat="45.50765" lon="6.91827">
        <ele>1551.22</ele>
        <time>2011-06-26T08:13:23Z</time>
      </trkpt>
      <trkpt lat="45.50745" lon="6.91844">
        <ele>1552.19</ele>
        <time>2011-06-26T08:13:33Z</time>
      </trkpt>
      <trkpt lat="45.50734" lon="6.91852">
        <ele>1551.71</ele>
        <time>2011-06-26T08:13:39Z</time>
      </trkpt>
      <trkpt lat="45.50732" lon="6.91854">
        <ele>1548.34</ele>
        <time>2011-06-26T08:13:40Z</time>
      </trkpt>
      <trkpt lat="45.5073" lon="6.91855">
        <ele>1556.03</ele>
        <time>2011-06-26T08:13:41Z</time>
      </trkpt>
      <trkpt lat="45.50729" lon="6.91857">
        <ele>1544.98</ele>
        <time>2011-06-26T08:13:42Z</time>
      </trkpt>
      <trkpt lat="45.50727" lon="6.91859">
        <ele>1550.26</ele>
        <time>2011-06-26T08:13:43Z</time>
      </trkpt>
      <trkpt lat="45.50708" lon="6.91881">
        <ele>1549.78</ele>
        <time>2011-06-26T08:13:53Z</time>
      </trkpt>
      <trkpt lat="45.50704" lon="6.91885">
        <ele>1556.51</ele>
        <time>2011-06-26T08:13:55Z</time>
      </trkpt>
      <trkpt lat="45.50702" lon="6.91887">
        <ele>1554.59</ele>
        <time>2011-06-26T08:13:56Z</time>
      </trkpt>
      <trkpt lat="45.50701" lon="6.91889">
        <ele>1546.9</ele>
        <time>2011-06-26T08:13:57Z</time>
      </trkpt>
      <trkpt lat="45.50699" lon="6.91891">
        <ele>1548.34</ele>
        <time>2011-06-26T08:13:58Z</time>
      </trkpt>
      <trkpt lat="45.50695" lon="6.91895">
        <ele>1554.11</ele>
        <time>2011-06-26T08:14:00Z</time>
      </trkpt>
      <trkpt lat="45.50694" lon="6.91897">
        <ele>1550.26</ele>
        <time>2011-06-26T08:14:01Z</time>
      </trkpt>
      <trkpt lat="45.5069" lon="6.91901">
        <ele>1553.15</ele>
        <time>2011-06-26T08:14:03Z</time>
      </trkpt>
      <trkpt lat="45.50675" lon="6.91914">
        <ele>1555.55</ele>
        <time>2011-06-26T08:14:11Z</time>
      </trkpt>
      <trkpt lat="45.50673" lon="6.91916">
        <ele>1554.11</ele>
        <time>2011-06-26T08:14:12Z</time>
      </trkpt>
      <trkpt lat="45.50668" lon="6.91919">
        <ele>1550.74</ele>
        <time>2011-06-26T08:14:14Z</time>
      </trkpt>
      <trkpt lat="45.50661" lon="6.91923">
        <ele>1555.55</ele>
        <time>2011-06-26T08:14:17Z</time>
      </trkpt>
      <trkpt lat="45.50659" lon="6.91925">
        <ele>1551.71</ele>
        <time>2011-06-26T08:14:18Z</time>
      </trkpt>
      <trkpt lat="45.50657" lon="6.91926">
        <ele>1553.15</ele>
        <time>2011-06-26T08:14:19Z</time>
      </trkpt>
      <trkpt lat="45.50654" lon="6.91928">
        <ele>1550.26</ele>
        <time>2011-06-26T08:14:21Z</time>
      </trkpt>
      <trkpt lat="45.50652" lon="6.91928">
        <ele>1550.74</ele>
        <time>2011-06-26T08:14:22Z</time>
      </trkpt>
      <trkpt lat="45.50651" lon="6.9193">
        <ele>1556.99</ele>
        <time>2011-06-26T08:14:23Z</time>
      </trkpt>
      <trkpt lat="45.50649" lon="6.91931">
        <ele>1552.67</ele>
        <time>2011-06-26T08:14:24Z</time>
      </trkpt>
      <trkpt lat="45.50645" lon="6.91937">
        <ele>1550.74</ele>
        <time>2011-06-26T08:14:27Z</time>
      </trkpt>
      <trkpt lat="45.50639" lon="6.91944">
        <ele>1556.03</ele>
        <time>2011-06-26T08:14:31Z</time>
      </trkpt>
      <trkpt lat="45.50638" lon="6.91946">
        <ele>1554.59</ele>
        <time>2011-06-26T08:14:32Z</time>
      </trkpt>
      <trkpt lat="45.50636" lon="6.91948">
        <ele>1549.78</ele>
        <time>2011-06-26T08:14:33Z</time>
      </trkpt>
      <trkpt lat="45.50635" lon="6.9195">
        <ele>1553.63</ele>
        <time>2011-06-26T08:14:34Z</time>
      </trkpt>
      <trkpt lat="45.50632" lon="6.91954">
        <ele>1550.26</ele>
        <time>2011-06-26T08:14:36Z</time>
      </trkpt>
      <trkpt lat="45.50628" lon="6.91959">
        <ele>1552.67</ele>
        <time>2011-06-26T08:14:39Z</time>
      </trkpt>
      <trkpt lat="45.50626" lon="6.91962">
        <ele>1554.11</ele>
        <time>2011-06-26T08:14:41Z</time>
      </trkpt>
      <trkpt lat="45.50623" lon="6.91967">
        <ele>1550.26</ele>
        <time>2011-06-26T08:14:44Z</time>
      </trkpt>
      <trkpt lat="45.50621" lon="6.91969">
        <ele>1554.59</ele>
        <time>2011-06-26T08:14:46Z</time>
      </trkpt>
      <trkpt lat="45.50618" lon="6.9197">
        <ele>1554.11</ele>
        <time>2011-06-26T08:14:48Z</time>
      </trkpt>
      <trkpt lat="45.50612" lon="6.9197">
        <ele>1556.03</ele>
        <time>2011-06-26T08:14:53Z</time>
      </trkpt>
      <trkpt lat="45.50611" lon="6.9197">
        <ele>1552.19</ele>
        <time>2011-06-26T08:14:54Z</time>
      </trkpt>
      <trkpt lat="45.5061" lon="6.9197">
        <ele>1558.43</ele>
        <time>2011-06-26T08:14:55Z</time>
      </trkpt>
      <trkpt lat="45.50609" lon="6.91969">
        <ele>1558.43</ele>
        <time>2011-06-26T08:14:56Z</time>
      </trkpt>
      <trkpt lat="45.50605" lon="6.91969">
        <ele>1554.11</ele>
        <time>2011-06-26T08:14:59Z</time>
      </trkpt>
      <trkpt lat="45.50603" lon="6.91969">
        <ele>1555.55</ele>
        <time>2011-06-26T08:15:01Z</time>
      </trkpt>
      <trkpt lat="45.50599" lon="6.91969">
        <ele>1554.59</ele>
        <time>2011-06-26T08:15:04Z</time>
      </trkpt>
      <trkpt lat="45.50593" lon="6.91972">
        <ele>1551.71</ele>
        <time>2011-06-26T08:15:09Z</time>
      </trkpt>
      <trkpt lat="45.5059" lon="6.91972">
        <ele>1555.07</ele>
        <time>2011-06-26T08:15:11Z</time>
      </trkpt>
      <trkpt lat="45.50589" lon="6.91973">
        <ele>1558.43</ele>
        <time>2011-06-26T08:15:12Z</time>
      </trkpt>
      <trkpt lat="45.5058" lon="6.91976">
        <ele>1562.28</ele>
        <time>2011-06-26T08:15:18Z</time>
      </trkpt>
      <trkpt lat="45.50577" lon="6.91977">
        <ele>1554.59</ele>
        <time>2011-06-26T08:15:20Z</time>
      </trkpt>
      <trkpt lat="45.50569" lon="6.91978">
        <ele>1559.4</ele>
        <time>2011-06-26T08:15:24Z</time>
      </trkpt>
      <trkpt lat="45.50567" lon="6.91977">
        <ele>1556.03</ele>
        <time>2011-06-26T08:15:25Z</time>
      </trkpt>
      <trkpt lat="45.50564" lon="6.91975">
        <ele>1558.43</ele>
        <time>2011-06-26T08:15:27Z</time>
      </trkpt>
      <trkpt lat="45.50559" lon="6.91953">
        <ele>1562.28</ele>
        <time>2011-06-26T08:15:36Z</time>
      </trkpt>
      <trkpt lat="45.50558" lon="6.9195">
        <ele>1556.51</ele>
        <time>2011-06-26T08:15:37Z</time>
      </trkpt>
      <trkpt lat="45.50557" lon="6.91944">
        <ele>1560.84</ele>
        <time>2011-06-26T08:15:39Z</time>
      </trkpt>
      <trkpt lat="45.50557" lon="6.91941">
        <ele>1557.47</ele>
        <time>2011-06-26T08:15:40Z</time>
      </trkpt>
      <trkpt lat="45.50556" lon="6.91935">
        <ele>1559.88</ele>
        <time>2011-06-26T08:15:43Z</time>
      </trkpt>
      <trkpt lat="45.50555" lon="6.91922">
        <ele>1563.24</ele>
        <time>2011-06-26T08:15:51Z</time>
      </trkpt>
      <trkpt lat="45.50555" lon="6.9192">
        <ele>1559.4</ele>
        <time>2011-06-26T08:15:52Z</time>
      </trkpt>
      <trkpt lat="45.50553" lon="6.91909">
        <ele>1560.84</ele>
        <time>2011-06-26T08:15:57Z</time>
      </trkpt>
      <trkpt lat="45.50552" lon="6.91906">
        <ele>1559.88</ele>
        <time>2011-06-26T08:15:59Z</time>
      </trkpt>
      <trkpt lat="45.50551" lon="6.91906">
        <ele>1562.76</ele>
        <time>2011-06-26T08:16:00Z</time>
      </trkpt>
      <trkpt lat="45.5055" lon="6.91906">
        <ele>1559.4</ele>
        <time>2011-06-26T08:16:01Z</time>
      </trkpt>
      <trkpt lat="45.50549" lon="6.91907">
        <ele>1559.4</ele>
        <time>2011-06-26T08:16:02Z</time>
      </trkpt>
      <trkpt lat="45.50548" lon="6.91909">
        <ele>1565.64</ele>
        <time>2011-06-26T08:16:04Z</time>
      </trkpt>
      <trkpt lat="45.50548" lon="6.9191">
        <ele>1568.53</ele>
        <time>2011-06-26T08:16:05Z</time>
      </trkpt>
      <trkpt lat="45.50546" lon="6.91912">
        <ele>1565.16</ele>
        <time>2011-06-26T08:16:07Z</time>
      </trkpt>
      <trkpt lat="45.50544" lon="6.9191">
        <ele>1566.12</ele>
        <time>2011-06-26T08:16:12Z</time>
      </trkpt>
      <trkpt lat="45.50543" lon="6.91907">
        <ele>1567.57</ele>
        <time>2011-06-26T08:16:15Z</time>
      </trkpt>
      <trkpt lat="45.50542" lon="6.91903">
        <ele>1563.24</ele>
        <time>2011-06-26T08:16:18Z</time>
      </trkpt>
      <trkpt lat="45.50541" lon="6.91902">
        <ele>1568.53</ele>
        <time>2011-06-26T08:16:19Z</time>
      </trkpt>
      <trkpt lat="45.50541" lon="6.91901">
        <ele>1569.01</ele>
        <time>2011-06-26T08:16:20Z</time>
      </trkpt>
      <trkpt lat="45.50538" lon="6.919">
        <ele>1571.89</ele>
        <time>2011-06-26T08:16:24Z</time>
      </trkpt>
      <trkpt lat="45.50537" lon="6.919">
        <ele>1567.57</ele>
        <time>2011-06-26T08:16:25Z</time>
      </trkpt>
      <trkpt lat="45.50534" lon="6.91897">
        <ele>1571.41</ele>
        <time>2011-06-26T08:16:30Z</time>
      </trkpt>
      <trkpt lat="45.50534" lon="6.91897">
        <ele>1570.45</ele>
        <time>2011-06-26T08:16:31Z</time>
      </trkpt>
      <trkpt lat="45.50533" lon="6.91895">
        <ele>1574.78</ele>
        <time>2011-06-26T08:16:33Z</time>
      </trkpt>
      <trkpt lat="45.50533" lon="6.91893">
        <ele>1569.01</ele>
        <time>2011-06-26T08:16:35Z</time>
      </trkpt>
      <trkpt lat="45.50532" lon="6.91892">
        <ele>1569.01</ele>
        <time>2011-06-26T08:16:36Z</time>
      </trkpt>
      <trkpt lat="45.50532" lon="6.9189">
        <ele>1575.74</ele>
        <time>2011-06-26T08:16:38Z</time>
      </trkpt>
      <trkpt lat="45.50532" lon="6.91889">
        <ele>1571.41</ele>
        <time>2011-06-26T08:16:39Z</time>
      </trkpt>
      <trkpt lat="45.50532" lon="6.91887">
        <ele>1574.3</ele>
        <time>2011-06-26T08:16:41Z</time>
      </trkpt>
      <trkpt lat="45.50531" lon="6.91884">
        <ele>1570.93</ele>
        <time>2011-06-26T08:16:43Z</time>
      </trkpt>
      <trkpt lat="45.50529" lon="6.91881">
        <ele>1573.33</ele>
        <time>2011-06-26T08:16:46Z</time>
      </trkpt>
      <trkpt lat="45.50524" lon="6.9187">
        <ele>1578.62</ele>
        <time>2011-06-26T08:16:54Z</time>
      </trkpt>
      <trkpt lat="45.50524" lon="6.91869">
        <ele>1574.78</ele>
        <time>2011-06-26T08:16:55Z</time>
      </trkpt>
      <trkpt lat="45.50523" lon="6.91866">
        <ele>1573.33</ele>
        <time>2011-06-26T08:16:57Z</time>
      </trkpt>
      <trkpt lat="45.50521" lon="6.91859">
        <ele>1581.51</ele>
        <time>2011-06-26T08:17:05Z</time>
      </trkpt>
      <trkpt lat="45.50521" lon="6.91857">
        <ele>1576.7</ele>
        <time>2011-06-26T08:17:06Z</time>
      </trkpt>
      <trkpt lat="45.50519" lon="6.91854">
        <ele>1580.54</ele>
        <time>2011-06-26T08:17:10Z</time>
      </trkpt>
      <trkpt lat="45.50518" lon="6.91854">
        <ele>1579.1</ele>
        <time>2011-06-26T08:17:11Z</time>
      </trkpt>
      <trkpt lat="45.50512" lon="6.91847">
        <ele>1583.91</ele>
        <time>2011-06-26T08:17:25Z</time>
      </trkpt>
      <trkpt lat="45.50512" lon="6.91846">
        <ele>1582.95</ele>
        <time>2011-06-26T08:17:26Z</time>
      </trkpt>
      <trkpt lat="45.50511" lon="6.91845">
        <ele>1579.58</ele>
        <time>2011-06-26T08:17:27Z</time>
      </trkpt>
      <trkpt lat="45.5051" lon="6.91845">
        <ele>1581.51</ele>
        <time>2011-06-26T08:17:28Z</time>
      </trkpt>
      <trkpt lat="45.50506" lon="6.91844">
        <ele>1585.83</ele>
        <time>2011-06-26T08:17:31Z</time>
      </trkpt>
      <trkpt lat="45.50505" lon="6.91844">
        <ele>1584.87</ele>
        <time>2011-06-26T08:17:32Z</time>
      </trkpt>
      <trkpt lat="45.50504" lon="6.91843">
        <ele>1581.99</ele>
        <time>2011-06-26T08:17:34Z</time>
      </trkpt>
      <trkpt lat="45.505" lon="6.91839">
        <ele>1584.87</ele>
        <time>2011-06-26T08:17:39Z</time>
      </trkpt>
      <trkpt lat="45.50496" lon="6.91833">
        <ele>1588.72</ele>
        <time>2011-06-26T08:17:47Z</time>
      </trkpt>
      <trkpt lat="45.50495" lon="6.91832">
        <ele>1587.27</ele>
        <time>2011-06-26T08:17:48Z</time>
      </trkpt>
      <trkpt lat="45.50495" lon="6.91831">
        <ele>1586.79</ele>
        <time>2011-06-26T08:17:49Z</time>
      </trkpt>
      <trkpt lat="45.50493" lon="6.91828">
        <ele>1583.43</ele>
        <time>2011-06-26T08:17:51Z</time>
      </trkpt>
      <trkpt lat="45.50492" lon="6.91827">
        <ele>1587.27</ele>
        <time>2011-06-26T08:17:52Z</time>
      </trkpt>
      <trkpt lat="45.5049" lon="6.91807">
        <ele>1587.75</ele>
        <time>2011-06-26T08:18:01Z</time>
      </trkpt>
      <trkpt lat="45.50485" lon="6.91801">
        <ele>1591.6</ele>
        <time>2011-06-26T08:18:09Z</time>
      </trkpt>
      <trkpt lat="45.50484" lon="6.918">
        <ele>1585.35</ele>
        <time>2011-06-26T08:18:10Z</time>
      </trkpt>
      <trkpt lat="45.50484" lon="6.91799">
        <ele>1591.12</ele>
        <time>2011-06-26T08:18:11Z</time>
      </trkpt>
      <trkpt lat="45.50483" lon="6.91799">
        <ele>1586.31</ele>
        <time>2011-06-26T08:18:12Z</time>
      </trkpt>
      <trkpt lat="45.50482" lon="6.91797">
        <ele>1590.64</ele>
        <time>2011-06-26T08:18:14Z</time>
      </trkpt>
      <trkpt lat="45.50481" lon="6.91791">
        <ele>1594</ele>
        <time>2011-06-26T08:18:19Z</time>
      </trkpt>
      <trkpt lat="45.5048" lon="6.9179">
        <ele>1590.16</ele>
        <time>2011-06-26T08:18:20Z</time>
      </trkpt>
      <trkpt lat="45.5048" lon="6.91789">
        <ele>1595.93</ele>
        <time>2011-06-26T08:18:21Z</time>
      </trkpt>
      <trkpt lat="45.50479" lon="6.91788">
        <ele>1592.56</ele>
        <time>2011-06-26T08:18:22Z</time>
      </trkpt>
      <trkpt lat="45.50477" lon="6.91786">
        <ele>1594</ele>
        <time>2011-06-26T08:18:30Z</time>
      </trkpt>
      <trkpt lat="45.50475" lon="6.91784">
        <ele>1591.6</ele>
        <time>2011-06-26T08:18:33Z</time>
      </trkpt>
      <trkpt lat="45.50475" lon="6.91783">
        <ele>1597.37</ele>
        <time>2011-06-26T08:18:34Z</time>
      </trkpt>
      <trkpt lat="45.50475" lon="6.91783">
        <ele>1596.89</ele>
        <time>2011-06-26T08:18:35Z</time>
      </trkpt>
      <trkpt lat="45.50473" lon="6.91781">
        <ele>1598.81</ele>
        <time>2011-06-26T08:18:42Z</time>
      </trkpt>
      <trkpt lat="45.50473" lon="6.9178">
        <ele>1594.48</ele>
        <time>2011-06-26T08:18:43Z</time>
      </trkpt>
      <trkpt lat="45.50473" lon="6.9178">
        <ele>1595.93</ele>
        <time>2011-06-26T08:18:44Z</time>
      </trkpt>
      <trkpt lat="45.50472" lon="6.91778">
        <ele>1597.37</ele>
        <time>2011-06-26T08:18:47Z</time>
      </trkpt>
      <trkpt lat="45.50471" lon="6.91778">
        <ele>1601.21</ele>
        <time>2011-06-26T08:18:49Z</time>
      </trkpt>
      <trkpt lat="45.5047" lon="6.9178">
        <ele>1602.66</ele>
        <time>2011-06-26T08:18:52Z</time>
      </trkpt>
      <trkpt lat="45.50469" lon="6.91782">
        <ele>1601.21</ele>
        <time>2011-06-26T08:18:54Z</time>
      </trkpt>
      <trkpt lat="45.50469" lon="6.91784">
        <ele>1602.66</ele>
        <time>2011-06-26T08:18:56Z</time>
      </trkpt>
      <trkpt lat="45.50468" lon="6.91785">
        <ele>1598.81</ele>
        <time>2011-06-26T08:18:58Z</time>
      </trkpt>
      <trkpt lat="45.50468" lon="6.91785">
        <ele>1601.69</ele>
        <time>2011-06-26T08:19:00Z</time>
      </trkpt>
      <trkpt lat="45.50467" lon="6.91784">
        <ele>1599.77</ele>
        <time>2011-06-26T08:19:01Z</time>
      </trkpt>
      <trkpt lat="45.50466" lon="6.91781">
        <ele>1596.41</ele>
        <time>2011-06-26T08:19:04Z</time>
      </trkpt>
      <trkpt lat="45.50466" lon="6.9178">
        <ele>1601.21</ele>
        <time>2011-06-26T08:19:05Z</time>
      </trkpt>
      <trkpt lat="45.50465" lon="6.91778">
        <ele>1602.66</ele>
        <time>2011-06-26T08:19:07Z</time>
      </trkpt>
      <trkpt lat="45.50465" lon="6.91775">
        <ele>1606.5</ele>
        <time>2011-06-26T08:19:09Z</time>
      </trkpt>
      <trkpt lat="45.50465" lon="6.91774">
        <ele>1603.14</ele>
        <time>2011-06-26T08:19:10Z</time>
      </trkpt>
      <trkpt lat="45.50464" lon="6.9177">
        <ele>1600.25</ele>
        <time>2011-06-26T08:19:15Z</time>
      </trkpt>
      <trkpt lat="45.50463" lon="6.91769">
        <ele>1603.62</ele>
        <time>2011-06-26T08:19:16Z</time>
      </trkpt>
      <trkpt lat="45.50461" lon="6.91765">
        <ele>1609.38</ele>
        <time>2011-06-26T08:19:20Z</time>
      </trkpt>
      <trkpt lat="45.50461" lon="6.91764">
        <ele>1604.1</ele>
        <time>2011-06-26T08:19:21Z</time>
      </trkpt>
      <trkpt lat="45.5046" lon="6.91763">
        <ele>1607.46</ele>
        <time>2011-06-26T08:19:22Z</time>
      </trkpt>
      <trkpt lat="45.5046" lon="6.91762">
        <ele>1611.31</ele>
        <time>2011-06-26T08:19:24Z</time>
      </trkpt>
      <trkpt lat="45.50459" lon="6.91763">
        <ele>1606.02</ele>
        <time>2011-06-26T08:19:25Z</time>
      </trkpt>
      <trkpt lat="45.50458" lon="6.91765">
        <ele>1609.38</ele>
        <time>2011-06-26T08:19:27Z</time>
      </trkpt>
      <trkpt lat="45.50458" lon="6.91768">
        <ele>1607.94</ele>
        <time>2011-06-26T08:19:29Z</time>
      </trkpt>
      <trkpt lat="45.50457" lon="6.9177">
        <ele>1606.98</ele>
        <time>2011-06-26T08:19:31Z</time>
      </trkpt>
      <trkpt lat="45.50457" lon="6.91773">
        <ele>1609.86</ele>
        <time>2011-06-26T08:19:35Z</time>
      </trkpt>
      <trkpt lat="45.50456" lon="6.91775">
        <ele>1610.83</ele>
        <time>2011-06-26T08:19:38Z</time>
      </trkpt>
      <trkpt lat="45.50456" lon="6.91779">
        <ele>1611.31</ele>
        <time>2011-06-26T08:19:42Z</time>
      </trkpt>
      <trkpt lat="45.50456" lon="6.9178">
        <ele>1610.83</ele>
        <time>2011-06-26T08:19:43Z</time>
      </trkpt>
      <trkpt lat="45.50456" lon="6.9178">
        <ele>1609.86</ele>
        <time>2011-06-26T08:19:45Z</time>
      </trkpt>
      <trkpt lat="45.50455" lon="6.91779">
        <ele>1606.02</ele>
        <time>2011-06-26T08:19:47Z</time>
      </trkpt>
      <trkpt lat="45.50454" lon="6.91778">
        <ele>1611.31</ele>
        <time>2011-06-26T08:19:48Z</time>
      </trkpt>
      <trkpt lat="45.50454" lon="6.91777">
        <ele>1611.79</ele>
        <time>2011-06-26T08:19:49Z</time>
      </trkpt>
      <trkpt lat="45.50452" lon="6.91774">
        <ele>1611.79</ele>
        <time>2011-06-26T08:19:52Z</time>
      </trkpt>
      <trkpt lat="45.5045" lon="6.91771">
        <ele>1611.79</ele>
        <time>2011-06-26T08:19:55Z</time>
      </trkpt>
      <trkpt lat="45.50449" lon="6.91769">
        <ele>1612.75</ele>
        <time>2011-06-26T08:19:57Z</time>
      </trkpt>
      <trkpt lat="45.50449" lon="6.91766">
        <ele>1611.31</ele>
        <time>2011-06-26T08:20:00Z</time>
      </trkpt>
      <trkpt lat="45.50448" lon="6.91764">
        <ele>1616.11</ele>
        <time>2011-06-26T08:20:01Z</time>
      </trkpt>
      <trkpt lat="45.50448" lon="6.91763">
        <ele>1614.19</ele>
        <time>2011-06-26T08:20:02Z</time>
      </trkpt>
      <trkpt lat="45.50447" lon="6.91759">
        <ele>1612.75</ele>
        <time>2011-06-26T08:20:05Z</time>
      </trkpt>
      <trkpt lat="45.50447" lon="6.91756">
        <ele>1614.19</ele>
        <time>2011-06-26T08:20:07Z</time>
      </trkpt>
      <trkpt lat="45.50446" lon="6.91753">
        <ele>1618.04</ele>
        <time>2011-06-26T08:20:11Z</time>
      </trkpt>
      <trkpt lat="45.50445" lon="6.91757">
        <ele>1613.23</ele>
        <time>2011-06-26T08:20:15Z</time>
      </trkpt>
      <trkpt lat="45.50445" lon="6.91759">
        <ele>1616.59</ele>
        <time>2011-06-26T08:20:16Z</time>
      </trkpt>
      <trkpt lat="45.50445" lon="6.91762">
        <ele>1614.19</ele>
        <time>2011-06-26T08:20:18Z</time>
      </trkpt>
      <trkpt lat="45.50446" lon="6.91767">
        <ele>1621.4</ele>
        <time>2011-06-26T08:20:21Z</time>
      </trkpt>
      <trkpt lat="45.50446" lon="6.91768">
        <ele>1617.07</ele>
        <time>2011-06-26T08:20:22Z</time>
      </trkpt>
      <trkpt lat="45.50446" lon="6.9177">
        <ele>1618.52</ele>
        <time>2011-06-26T08:20:24Z</time>
      </trkpt>
      <trkpt lat="45.50445" lon="6.91768">
        <ele>1616.59</ele>
        <time>2011-06-26T08:20:28Z</time>
      </trkpt>
      <trkpt lat="45.50444" lon="6.91762">
        <ele>1617.56</ele>
        <time>2011-06-26T08:20:33Z</time>
      </trkpt>
      <trkpt lat="45.50444" lon="6.91759">
        <ele>1620.92</ele>
        <time>2011-06-26T08:20:35Z</time>
      </trkpt>
      <trkpt lat="45.50444" lon="6.91757">
        <ele>1619.96</ele>
        <time>2011-06-26T08:20:37Z</time>
      </trkpt>
      <trkpt lat="45.5044" lon="6.91755">
        <ele>1625.25</ele>
        <time>2011-06-26T08:20:44Z</time>
      </trkpt>
      <trkpt lat="45.50439" lon="6.91756">
        <ele>1619.48</ele>
        <time>2011-06-26T08:20:45Z</time>
      </trkpt>
      <trkpt lat="45.50438" lon="6.91756">
        <ele>1622.84</ele>
        <time>2011-06-26T08:20:46Z</time>
      </trkpt>
      <trkpt lat="45.50436" lon="6.91759">
        <ele>1619</ele>
        <time>2011-06-26T08:20:50Z</time>
      </trkpt>
      <trkpt lat="45.50437" lon="6.9176">
        <ele>1620.92</ele>
        <time>2011-06-26T08:20:51Z</time>
      </trkpt>
      <trkpt lat="45.50438" lon="6.91762">
        <ele>1625.73</ele>
        <time>2011-06-26T08:20:54Z</time>
      </trkpt>
      <trkpt lat="45.50436" lon="6.91764">
        <ele>1620.92</ele>
        <time>2011-06-26T08:20:59Z</time>
      </trkpt>
      <trkpt lat="45.50436" lon="6.91765">
        <ele>1621.88</ele>
        <time>2011-06-26T08:21:00Z</time>
      </trkpt>
      <trkpt lat="45.50435" lon="6.91765">
        <ele>1628.61</ele>
        <time>2011-06-26T08:21:01Z</time>
      </trkpt>
      <trkpt lat="45.50434" lon="6.91766">
        <ele>1625.25</ele>
        <time>2011-06-26T08:21:02Z</time>
      </trkpt>
      <trkpt lat="45.5044" lon="6.91763">
        <ele>1629.09</ele>
        <time>2011-06-26T08:21:09Z</time>
      </trkpt>
      <trkpt lat="45.50441" lon="6.91763">
        <ele>1624.77</ele>
        <time>2011-06-26T08:21:10Z</time>
      </trkpt>
      <trkpt lat="45.5044" lon="6.91763">
        <ele>1627.65</ele>
        <time>2011-06-26T08:21:11Z</time>
      </trkpt>
      <trkpt lat="45.50436" lon="6.91766">
        <ele>1631.49</ele>
        <time>2011-06-26T08:21:15Z</time>
      </trkpt>
      <trkpt lat="45.50434" lon="6.91767">
        <ele>1625.73</ele>
        <time>2011-06-26T08:21:16Z</time>
      </trkpt>
      <trkpt lat="45.50431" lon="6.91771">
        <ele>1627.17</ele>
        <time>2011-06-26T08:21:18Z</time>
      </trkpt>
      <trkpt lat="45.50428" lon="6.91775">
        <ele>1631.01</ele>
        <time>2011-06-26T08:21:20Z</time>
      </trkpt>
      <trkpt lat="45.50427" lon="6.91776">
        <ele>1626.21</ele>
        <time>2011-06-26T08:21:21Z</time>
      </trkpt>
      <trkpt lat="45.50425" lon="6.91778">
        <ele>1630.53</ele>
        <time>2011-06-26T08:21:22Z</time>
      </trkpt>
      <trkpt lat="45.5042" lon="6.91782">
        <ele>1630.53</ele>
        <time>2011-06-26T08:21:26Z</time>
      </trkpt>
      <trkpt lat="45.50414" lon="6.91788">
        <ele>1633.42</ele>
        <time>2011-06-26T08:21:31Z</time>
      </trkpt>
      <trkpt lat="45.50413" lon="6.91789">
        <ele>1629.09</ele>
        <time>2011-06-26T08:21:32Z</time>
      </trkpt>
      <trkpt lat="45.5041" lon="6.91792">
        <ele>1629.09</ele>
        <time>2011-06-26T08:21:34Z</time>
      </trkpt>
      <trkpt lat="45.50405" lon="6.91797">
        <ele>1634.86</ele>
        <time>2011-06-26T08:21:38Z</time>
      </trkpt>
      <trkpt lat="45.50404" lon="6.91798">
        <ele>1631.01</ele>
        <time>2011-06-26T08:21:39Z</time>
      </trkpt>
      <trkpt lat="45.50401" lon="6.91799">
        <ele>1631.01</ele>
        <time>2011-06-26T08:21:41Z</time>
      </trkpt>
      <trkpt lat="45.50398" lon="6.91798">
        <ele>1627.65</ele>
        <time>2011-06-26T08:21:43Z</time>
      </trkpt>
      <trkpt lat="45.50397" lon="6.91798">
        <ele>1631.49</ele>
        <time>2011-06-26T08:21:44Z</time>
      </trkpt>
      <trkpt lat="45.50395" lon="6.91799">
        <ele>1635.34</ele>
        <time>2011-06-26T08:21:47Z</time>
      </trkpt>
      <trkpt lat="45.50393" lon="6.918">
        <ele>1629.57</ele>
        <time>2011-06-26T08:21:49Z</time>
      </trkpt>
      <trkpt lat="45.50392" lon="6.918">
        <ele>1635.82</ele>
        <time>2011-06-26T08:21:50Z</time>
      </trkpt>
      <trkpt lat="45.50389" lon="6.91801">
        <ele>1631.01</ele>
        <time>2011-06-26T08:21:54Z</time>
      </trkpt>
      <trkpt lat="45.50388" lon="6.91801">
        <ele>1631.01</ele>
        <time>2011-06-26T08:21:55Z</time>
      </trkpt>
      <trkpt lat="45.50388" lon="6.91802">
        <ele>1634.38</ele>
        <time>2011-06-26T08:21:56Z</time>
      </trkpt>
      <trkpt lat="45.50387" lon="6.91802">
        <ele>1637.74</ele>
        <time>2011-06-26T08:21:57Z</time>
      </trkpt>
      <trkpt lat="45.50386" lon="6.91802">
        <ele>1633.9</ele>
        <time>2011-06-26T08:21:58Z</time>
      </trkpt>
      <trkpt lat="45.50382" lon="6.91802">
        <ele>1638.7</ele>
        <time>2011-06-26T08:22:05Z</time>
      </trkpt>
      <trkpt lat="45.50381" lon="6.91802">
        <ele>1634.38</ele>
        <time>2011-06-26T08:22:06Z</time>
      </trkpt>
      <trkpt lat="45.50381" lon="6.91802">
        <ele>1641.59</ele>
        <time>2011-06-26T08:22:07Z</time>
      </trkpt>
      <trkpt lat="45.5038" lon="6.91802">
        <ele>1641.11</ele>
        <time>2011-06-26T08:22:08Z</time>
      </trkpt>
      <trkpt lat="45.50378" lon="6.91801">
        <ele>1635.34</ele>
        <time>2011-06-26T08:22:10Z</time>
      </trkpt>
      <trkpt lat="45.50378" lon="6.91801">
        <ele>1638.22</ele>
        <time>2011-06-26T08:22:11Z</time>
      </trkpt>
      <trkpt lat="45.50376" lon="6.918">
        <ele>1641.59</ele>
        <time>2011-06-26T08:22:14Z</time>
      </trkpt>
      <trkpt lat="45.50375" lon="6.918">
        <ele>1635.34</ele>
        <time>2011-06-26T08:22:15Z</time>
      </trkpt>
      <trkpt lat="45.50375" lon="6.91799">
        <ele>1640.63</ele>
        <time>2011-06-26T08:22:16Z</time>
      </trkpt>
      <trkpt lat="45.50374" lon="6.91798">
        <ele>1644.47</ele>
        <time>2011-06-26T08:22:18Z</time>
      </trkpt>
      <trkpt lat="45.50373" lon="6.91798">
        <ele>1633.9</ele>
        <time>2011-06-26T08:22:19Z</time>
      </trkpt>
      <trkpt lat="45.50372" lon="6.91797">
        <ele>1637.74</ele>
        <time>2011-06-26T08:22:20Z</time>
      </trkpt>
      <trkpt lat="45.5037" lon="6.91798">
        <ele>1643.99</ele>
        <time>2011-06-26T08:22:23Z</time>
      </trkpt>
      <trkpt lat="45.50369" lon="6.91799">
        <ele>1643.03</ele>
        <time>2011-06-26T08:22:24Z</time>
      </trkpt>
      <trkpt lat="45.50368" lon="6.91799">
        <ele>1646.4</ele>
        <time>2011-06-26T08:22:25Z</time>
      </trkpt>
      <trkpt lat="45.50367" lon="6.918">
        <ele>1641.59</ele>
        <time>2011-06-26T08:22:26Z</time>
      </trkpt>
      <trkpt lat="45.50365" lon="6.91801">
        <ele>1645.91</ele>
        <time>2011-06-26T08:22:28Z</time>
      </trkpt>
      <trkpt lat="45.50364" lon="6.91802">
        <ele>1639.19</ele>
        <time>2011-06-26T08:22:29Z</time>
      </trkpt>
      <trkpt lat="45.50362" lon="6.91802">
        <ele>1643.99</ele>
        <time>2011-06-26T08:22:31Z</time>
      </trkpt>
      <trkpt lat="45.50359" lon="6.91801">
        <ele>1640.15</ele>
        <time>2011-06-26T08:22:34Z</time>
      </trkpt>
      <trkpt lat="45.50359" lon="6.91801">
        <ele>1643.51</ele>
        <time>2011-06-26T08:22:35Z</time>
      </trkpt>
      <trkpt lat="45.50357" lon="6.918">
        <ele>1645.43</ele>
        <time>2011-06-26T08:22:37Z</time>
      </trkpt>
      <trkpt lat="45.50353" lon="6.918">
        <ele>1648.8</ele>
        <time>2011-06-26T08:22:45Z</time>
      </trkpt>
      <trkpt lat="45.50353" lon="6.91801">
        <ele>1647.36</ele>
        <time>2011-06-26T08:22:46Z</time>
      </trkpt>
      <trkpt lat="45.50351" lon="6.91802">
        <ele>1650.24</ele>
        <time>2011-06-26T08:22:48Z</time>
      </trkpt>
      <trkpt lat="45.50351" lon="6.91802">
        <ele>1643.99</ele>
        <time>2011-06-26T08:22:49Z</time>
      </trkpt>
      <trkpt lat="45.5035" lon="6.91803">
        <ele>1647.84</ele>
        <time>2011-06-26T08:22:50Z</time>
      </trkpt>
      <trkpt lat="45.50348" lon="6.91804">
        <ele>1643.51</ele>
        <time>2011-06-26T08:22:52Z</time>
      </trkpt>
      <trkpt lat="45.50347" lon="6.91804">
        <ele>1652.16</ele>
        <time>2011-06-26T08:22:53Z</time>
      </trkpt>
      <trkpt lat="45.50345" lon="6.91804">
        <ele>1648.8</ele>
        <time>2011-06-26T08:22:55Z</time>
      </trkpt>
      <trkpt lat="45.50331" lon="6.91809">
        <ele>1645.43</ele>
        <time>2011-06-26T08:23:07Z</time>
      </trkpt>
      <trkpt lat="45.50328" lon="6.9181">
        <ele>1649.28</ele>
        <time>2011-06-26T08:23:09Z</time>
      </trkpt>
      <trkpt lat="45.50327" lon="6.91811">
        <ele>1653.12</ele>
        <time>2011-06-26T08:23:10Z</time>
      </trkpt>
      <trkpt lat="45.50326" lon="6.91812">
        <ele>1653.12</ele>
        <time>2011-06-26T08:23:11Z</time>
      </trkpt>
      <trkpt lat="45.50324" lon="6.91815">
        <ele>1650.24</ele>
        <time>2011-06-26T08:23:13Z</time>
      </trkpt>
      <trkpt lat="45.50323" lon="6.91815">
        <ele>1654.09</ele>
        <time>2011-06-26T08:23:14Z</time>
      </trkpt>
      <trkpt lat="45.5032" lon="6.91816">
        <ele>1650.24</ele>
        <time>2011-06-26T08:23:17Z</time>
      </trkpt>
      <trkpt lat="45.5032" lon="6.91814">
        <ele>1655.05</ele>
        <time>2011-06-26T08:23:19Z</time>
      </trkpt>
      <trkpt lat="45.50324" lon="6.918">
        <ele>1654.09</ele>
        <time>2011-06-26T08:23:28Z</time>
      </trkpt>
      <trkpt lat="45.50326" lon="6.91796">
        <ele>1656.01</ele>
        <time>2011-06-26T08:23:31Z</time>
      </trkpt>
      <trkpt lat="45.50327" lon="6.91791">
        <ele>1655.53</ele>
        <time>2011-06-26T08:23:35Z</time>
      </trkpt>
      <trkpt lat="45.50327" lon="6.91788">
        <ele>1656.97</ele>
        <time>2011-06-26T08:23:37Z</time>
      </trkpt>
      <trkpt lat="45.50328" lon="6.91785">
        <ele>1656.97</ele>
        <time>2011-06-26T08:23:40Z</time>
      </trkpt>
      <trkpt lat="45.50328" lon="6.9178">
        <ele>1658.89</ele>
        <time>2011-06-26T08:23:44Z</time>
      </trkpt>
      <trkpt lat="45.50329" lon="6.91774">
        <ele>1661.78</ele>
        <time>2011-06-26T08:23:48Z</time>
      </trkpt>
      <trkpt lat="45.5033" lon="6.91773">
        <ele>1658.41</ele>
        <time>2011-06-26T08:23:49Z</time>
      </trkpt>
      <trkpt lat="45.50331" lon="6.9177">
        <ele>1661.78</ele>
        <time>2011-06-26T08:23:52Z</time>
      </trkpt>
      <trkpt lat="45.50331" lon="6.91769">
        <ele>1661.3</ele>
        <time>2011-06-26T08:23:53Z</time>
      </trkpt>
      <trkpt lat="45.50333" lon="6.91767">
        <ele>1660.81</ele>
        <time>2011-06-26T08:23:56Z</time>
      </trkpt>
      <trkpt lat="45.50335" lon="6.91765">
        <ele>1664.66</ele>
        <time>2011-06-26T08:23:59Z</time>
      </trkpt>
      <trkpt lat="45.50335" lon="6.91764">
        <ele>1660.81</ele>
        <time>2011-06-26T08:24:00Z</time>
      </trkpt>
      <trkpt lat="45.50337" lon="6.91763">
        <ele>1663.22</ele>
        <time>2011-06-26T08:24:03Z</time>
      </trkpt>
      <trkpt lat="45.50339" lon="6.9176">
        <ele>1666.58</ele>
        <time>2011-06-26T08:24:06Z</time>
      </trkpt>
      <trkpt lat="45.5034" lon="6.91757">
        <ele>1664.66</ele>
        <time>2011-06-26T08:24:09Z</time>
      </trkpt>
      <trkpt lat="45.5034" lon="6.91755">
        <ele>1663.22</ele>
        <time>2011-06-26T08:24:12Z</time>
      </trkpt>
      <trkpt lat="45.50332" lon="6.91753">
        <ele>1665.62</ele>
        <time>2011-06-26T08:24:21Z</time>
      </trkpt>
      <trkpt lat="45.50331" lon="6.91754">
        <ele>1669.47</ele>
        <time>2011-06-26T08:24:24Z</time>
      </trkpt>
      <trkpt lat="45.5033" lon="6.91753">
        <ele>1668.99</ele>
        <time>2011-06-26T08:24:25Z</time>
      </trkpt>
      <trkpt lat="45.50321" lon="6.91747">
        <ele>1671.39</ele>
        <time>2011-06-26T08:24:40Z</time>
      </trkpt>
      <trkpt lat="45.50321" lon="6.9174">
        <ele>1671.87</ele>
        <time>2011-06-26T08:24:44Z</time>
      </trkpt>
      <trkpt lat="45.5033" lon="6.9174">
        <ele>1674.75</ele>
        <time>2011-06-26T08:24:51Z</time>
      </trkpt>
      <trkpt lat="45.50331" lon="6.9174">
        <ele>1671.39</ele>
        <time>2011-06-26T08:24:52Z</time>
      </trkpt>
      <trkpt lat="45.50332" lon="6.91741">
        <ele>1672.83</ele>
        <time>2011-06-26T08:24:53Z</time>
      </trkpt>
      <trkpt lat="45.50335" lon="6.9174">
        <ele>1672.35</ele>
        <time>2011-06-26T08:24:56Z</time>
      </trkpt>
      <trkpt lat="45.50339" lon="6.91736">
        <ele>1673.31</ele>
        <time>2011-06-26T08:25:01Z</time>
      </trkpt>
      <trkpt lat="45.5034" lon="6.91735">
        <ele>1677.16</ele>
        <time>2011-06-26T08:25:02Z</time>
      </trkpt>
      <trkpt lat="45.50341" lon="6.91734">
        <ele>1676.2</ele>
        <time>2011-06-26T08:25:03Z</time>
      </trkpt>
      <trkpt lat="45.50343" lon="6.9173">
        <ele>1679.08</ele>
        <time>2011-06-26T08:25:06Z</time>
      </trkpt>
      <trkpt lat="45.50345" lon="6.91722">
        <ele>1679.56</ele>
        <time>2011-06-26T08:25:11Z</time>
      </trkpt>
      <trkpt lat="45.50345" lon="6.91721">
        <ele>1679.08</ele>
        <time>2011-06-26T08:25:12Z</time>
      </trkpt>
      <trkpt lat="45.50346" lon="6.91718">
        <ele>1674.75</ele>
        <time>2011-06-26T08:25:14Z</time>
      </trkpt>
      <trkpt lat="45.50347" lon="6.91717">
        <ele>1677.16</ele>
        <time>2011-06-26T08:25:15Z</time>
      </trkpt>
      <trkpt lat="45.50355" lon="6.91711">
        <ele>1682.44</ele>
        <time>2011-06-26T08:25:25Z</time>
      </trkpt>
      <trkpt lat="45.50355" lon="6.9171">
        <ele>1677.64</ele>
        <time>2011-06-26T08:25:26Z</time>
      </trkpt>
      <trkpt lat="45.50356" lon="6.91709">
        <ele>1678.6</ele>
        <time>2011-06-26T08:25:27Z</time>
      </trkpt>
      <trkpt lat="45.50358" lon="6.91706">
        <ele>1681.48</ele>
        <time>2011-06-26T08:25:29Z</time>
      </trkpt>
      <trkpt lat="45.50359" lon="6.91705">
        <ele>1681.48</ele>
        <time>2011-06-26T08:25:30Z</time>
      </trkpt>
      <trkpt lat="45.50361" lon="6.91702">
        <ele>1681.96</ele>
        <time>2011-06-26T08:25:32Z</time>
      </trkpt>
      <trkpt lat="45.50363" lon="6.917">
        <ele>1677.64</ele>
        <time>2011-06-26T08:25:34Z</time>
      </trkpt>
      <trkpt lat="45.50363" lon="6.91698">
        <ele>1679.56</ele>
        <time>2011-06-26T08:25:35Z</time>
      </trkpt>
      <trkpt lat="45.50364" lon="6.91694">
        <ele>1685.81</ele>
        <time>2011-06-26T08:25:38Z</time>
      </trkpt>
      <trkpt lat="45.50365" lon="6.91693">
        <ele>1682.93</ele>
        <time>2011-06-26T08:25:39Z</time>
      </trkpt>
      <trkpt lat="45.50371" lon="6.91685">
        <ele>1686.29</ele>
        <time>2011-06-26T08:25:51Z</time>
      </trkpt>
      <trkpt lat="45.50371" lon="6.91683">
        <ele>1685.33</ele>
        <time>2011-06-26T08:25:55Z</time>
      </trkpt>
      <trkpt lat="45.50372" lon="6.91682">
        <ele>1686.77</ele>
        <time>2011-06-26T08:25:57Z</time>
      </trkpt>
      <trkpt lat="45.50375" lon="6.9168">
        <ele>1688.21</ele>
        <time>2011-06-26T08:26:00Z</time>
      </trkpt>
      <trkpt lat="45.5038" lon="6.91678">
        <ele>1690.62</ele>
        <time>2011-06-26T08:26:05Z</time>
      </trkpt>
      <trkpt lat="45.50382" lon="6.91676">
        <ele>1688.69</ele>
        <time>2011-06-26T08:26:07Z</time>
      </trkpt>
      <trkpt lat="45.50382" lon="6.91673">
        <ele>1692.54</ele>
        <time>2011-06-26T08:26:09Z</time>
      </trkpt>
      <trkpt lat="45.50383" lon="6.91662">
        <ele>1688.69</ele>
        <time>2011-06-26T08:26:16Z</time>
      </trkpt>
      <trkpt lat="45.50384" lon="6.91661">
        <ele>1692.06</ele>
        <time>2011-06-26T08:26:17Z</time>
      </trkpt>
      <trkpt lat="45.50388" lon="6.91648">
        <ele>1695.42</ele>
        <time>2011-06-26T08:26:30Z</time>
      </trkpt>
      <trkpt lat="45.50388" lon="6.91644">
        <ele>1693.98</ele>
        <time>2011-06-26T08:26:33Z</time>
      </trkpt>
      <trkpt lat="45.50386" lon="6.91639">
        <ele>1698.79</ele>
        <time>2011-06-26T08:26:37Z</time>
      </trkpt>
      <trkpt lat="45.50386" lon="6.91638">
        <ele>1695.9</ele>
        <time>2011-06-26T08:26:38Z</time>
      </trkpt>
      <trkpt lat="45.50386" lon="6.91636">
        <ele>1699.27</ele>
        <time>2011-06-26T08:26:40Z</time>
      </trkpt>
      <trkpt lat="45.50386" lon="6.91632">
        <ele>1695.9</ele>
        <time>2011-06-26T08:26:44Z</time>
      </trkpt>
      <trkpt lat="45.50386" lon="6.91628">
        <ele>1695.9</ele>
        <time>2011-06-26T08:26:48Z</time>
      </trkpt>
      <trkpt lat="45.50387" lon="6.91628">
        <ele>1699.27</ele>
        <time>2011-06-26T08:26:49Z</time>
      </trkpt>
      <trkpt lat="45.50387" lon="6.91627">
        <ele>1697.34</ele>
        <time>2011-06-26T08:26:50Z</time>
      </trkpt>
      <trkpt lat="45.50388" lon="6.91624">
        <ele>1700.71</ele>
        <time>2011-06-26T08:26:55Z</time>
      </trkpt>
      <trkpt lat="45.50388" lon="6.91621">
        <ele>1697.83</ele>
        <time>2011-06-26T08:26:57Z</time>
      </trkpt>
      <trkpt lat="45.50387" lon="6.9162">
        <ele>1698.31</ele>
        <time>2011-06-26T08:26:58Z</time>
      </trkpt>
      <trkpt lat="45.50387" lon="6.91616">
        <ele>1699.75</ele>
        <time>2011-06-26T08:27:00Z</time>
      </trkpt>
      <trkpt lat="45.50386" lon="6.91611">
        <ele>1703.11</ele>
        <time>2011-06-26T08:27:03Z</time>
      </trkpt>
      <trkpt lat="45.50386" lon="6.91607">
        <ele>1699.27</ele>
        <time>2011-06-26T08:27:05Z</time>
      </trkpt>
      <trkpt lat="45.50387" lon="6.91606">
        <ele>1700.23</ele>
        <time>2011-06-26T08:27:06Z</time>
      </trkpt>
      <trkpt lat="45.50387" lon="6.91599">
        <ele>1703.59</ele>
        <time>2011-06-26T08:27:11Z</time>
      </trkpt>
      <trkpt lat="45.50387" lon="6.91597">
        <ele>1702.63</ele>
        <time>2011-06-26T08:27:15Z</time>
      </trkpt>
      <trkpt lat="45.50386" lon="6.91599">
        <ele>1706.96</ele>
        <time>2011-06-26T08:27:20Z</time>
      </trkpt>
      <trkpt lat="45.50385" lon="6.91607">
        <ele>1703.59</ele>
        <time>2011-06-26T08:27:23Z</time>
      </trkpt>
      <trkpt lat="45.50383" lon="6.91613">
        <ele>1709.36</ele>
        <time>2011-06-26T08:27:26Z</time>
      </trkpt>
      <trkpt lat="45.50383" lon="6.91615">
        <ele>1706.48</ele>
        <time>2011-06-26T08:27:27Z</time>
      </trkpt>
      <trkpt lat="45.50381" lon="6.91621">
        <ele>1710.32</ele>
        <time>2011-06-26T08:27:33Z</time>
      </trkpt>
      <trkpt lat="45.50381" lon="6.91621">
        <ele>1706.96</ele>
        <time>2011-06-26T08:27:34Z</time>
      </trkpt>
      <trkpt lat="45.5038" lon="6.91622">
        <ele>1709.36</ele>
        <time>2011-06-26T08:27:38Z</time>
      </trkpt>
      <trkpt lat="45.50379" lon="6.91624">
        <ele>1710.8</ele>
        <time>2011-06-26T08:27:41Z</time>
      </trkpt>
      <trkpt lat="45.50376" lon="6.9163">
        <ele>1707.44</ele>
        <time>2011-06-26T08:27:47Z</time>
      </trkpt>
      <trkpt lat="45.50375" lon="6.91631">
        <ele>1711.28</ele>
        <time>2011-06-26T08:27:48Z</time>
      </trkpt>
      <trkpt lat="45.50375" lon="6.91631">
        <ele>1710.32</ele>
        <time>2011-06-26T08:27:49Z</time>
      </trkpt>
      <trkpt lat="45.50373" lon="6.91631">
        <ele>1711.76</ele>
        <time>2011-06-26T08:27:52Z</time>
      </trkpt>
      <trkpt lat="45.50372" lon="6.91631">
        <ele>1709.84</ele>
        <time>2011-06-26T08:27:55Z</time>
      </trkpt>
      <trkpt lat="45.50371" lon="6.91632">
        <ele>1712.73</ele>
        <time>2011-06-26T08:27:58Z</time>
      </trkpt>
      <trkpt lat="45.50368" lon="6.91635">
        <ele>1714.17</ele>
        <time>2011-06-26T08:28:02Z</time>
      </trkpt>
      <trkpt lat="45.50366" lon="6.91636">
        <ele>1712.25</ele>
        <time>2011-06-26T08:28:04Z</time>
      </trkpt>
      <trkpt lat="45.50361" lon="6.91634">
        <ele>1715.61</ele>
        <time>2011-06-26T08:28:11Z</time>
      </trkpt>
      <trkpt lat="45.50342" lon="6.91641">
        <ele>1714.17</ele>
        <time>2011-06-26T08:28:29Z</time>
      </trkpt>
      <trkpt lat="45.50341" lon="6.91641">
        <ele>1718.01</ele>
        <time>2011-06-26T08:28:30Z</time>
      </trkpt>
      <trkpt lat="45.50336" lon="6.91639">
        <ele>1719.94</ele>
        <time>2011-06-26T08:28:36Z</time>
      </trkpt>
      <trkpt lat="45.50335" lon="6.9164">
        <ele>1716.09</ele>
        <time>2011-06-26T08:28:37Z</time>
      </trkpt>
      <trkpt lat="45.50334" lon="6.91641">
        <ele>1717.05</ele>
        <time>2011-06-26T08:28:38Z</time>
      </trkpt>
      <trkpt lat="45.50328" lon="6.91648">
        <ele>1718.97</ele>
        <time>2011-06-26T08:28:45Z</time>
      </trkpt>
      <trkpt lat="45.50322" lon="6.91649">
        <ele>1719.46</ele>
        <time>2011-06-26T08:28:49Z</time>
      </trkpt>
      <trkpt lat="45.50319" lon="6.91651">
        <ele>1718.97</ele>
        <time>2011-06-26T08:28:52Z</time>
      </trkpt>
      <trkpt lat="45.50316" lon="6.91651">
        <ele>1721.86</ele>
        <time>2011-06-26T08:28:54Z</time>
      </trkpt>
      <trkpt lat="45.50315" lon="6.91651">
        <ele>1718.49</ele>
        <time>2011-06-26T08:28:55Z</time>
      </trkpt>
      <trkpt lat="45.50314" lon="6.91651">
        <ele>1722.34</ele>
        <time>2011-06-26T08:28:56Z</time>
      </trkpt>
      <trkpt lat="45.50314" lon="6.91651">
        <ele>1719.46</ele>
        <time>2011-06-26T08:28:57Z</time>
      </trkpt>
      <trkpt lat="45.50311" lon="6.91651">
        <ele>1718.97</ele>
        <time>2011-06-26T08:29:01Z</time>
      </trkpt>
      <trkpt lat="45.50309" lon="6.9165">
        <ele>1721.86</ele>
        <time>2011-06-26T08:29:03Z</time>
      </trkpt>
      <trkpt lat="45.50307" lon="6.91648">
        <ele>1724.26</ele>
        <time>2011-06-26T08:29:05Z</time>
      </trkpt>
      <trkpt lat="45.50307" lon="6.91645">
        <ele>1720.9</ele>
        <time>2011-06-26T08:29:07Z</time>
      </trkpt>
      <trkpt lat="45.50307" lon="6.91644">
        <ele>1721.86</ele>
        <time>2011-06-26T08:29:08Z</time>
      </trkpt>
      <trkpt lat="45.50308" lon="6.91641">
        <ele>1723.78</ele>
        <time>2011-06-26T08:29:10Z</time>
      </trkpt>
      <trkpt lat="45.5031" lon="6.91628">
        <ele>1724.26</ele>
        <time>2011-06-26T08:29:18Z</time>
      </trkpt>
      <trkpt lat="45.50313" lon="6.91617">
        <ele>1727.63</ele>
        <time>2011-06-26T08:29:23Z</time>
      </trkpt>
      <trkpt lat="45.50314" lon="6.91616">
        <ele>1725.7</ele>
        <time>2011-06-26T08:29:27Z</time>
      </trkpt>
      <trkpt lat="45.50319" lon="6.91609">
        <ele>1730.99</ele>
        <time>2011-06-26T08:29:37Z</time>
      </trkpt>
      <trkpt lat="45.5032" lon="6.91608">
        <ele>1728.11</ele>
        <time>2011-06-26T08:29:38Z</time>
      </trkpt>
      <trkpt lat="45.5032" lon="6.91607">
        <ele>1731.47</ele>
        <time>2011-06-26T08:29:39Z</time>
      </trkpt>
      <trkpt lat="45.50323" lon="6.91598">
        <ele>1732.43</ele>
        <time>2011-06-26T08:29:45Z</time>
      </trkpt>
      <trkpt lat="45.50324" lon="6.91595">
        <ele>1733.39</ele>
        <time>2011-06-26T08:29:47Z</time>
      </trkpt>
      <trkpt lat="45.50325" lon="6.91593">
        <ele>1732.91</ele>
        <time>2011-06-26T08:29:49Z</time>
      </trkpt>
      <trkpt lat="45.50331" lon="6.91583">
        <ele>1737.24</ele>
        <time>2011-06-26T08:30:00Z</time>
      </trkpt>
      <trkpt lat="45.50332" lon="6.91583">
        <ele>1732.91</ele>
        <time>2011-06-26T08:30:01Z</time>
      </trkpt>
      <trkpt lat="45.50332" lon="6.91582">
        <ele>1735.8</ele>
        <time>2011-06-26T08:30:02Z</time>
      </trkpt>
      <trkpt lat="45.50335" lon="6.91579">
        <ele>1736.76</ele>
        <time>2011-06-26T08:30:08Z</time>
      </trkpt>
      <trkpt lat="45.50343" lon="6.91561">
        <ele>1739.64</ele>
        <time>2011-06-26T08:30:22Z</time>
      </trkpt>
      <trkpt lat="45.50344" lon="6.91559">
        <ele>1739.16</ele>
        <time>2011-06-26T08:30:24Z</time>
      </trkpt>
      <trkpt lat="45.50346" lon="6.91543">
        <ele>1742.53</ele>
        <time>2011-06-26T08:30:33Z</time>
      </trkpt>
      <trkpt lat="45.50346" lon="6.91528">
        <ele>1745.89</ele>
        <time>2011-06-26T08:30:48Z</time>
      </trkpt>
      <trkpt lat="45.50345" lon="6.91536">
        <ele>1749.74</ele>
        <time>2011-06-26T08:30:56Z</time>
      </trkpt>
      <trkpt lat="45.50344" lon="6.91538">
        <ele>1745.89</ele>
        <time>2011-06-26T08:30:58Z</time>
      </trkpt>
      <trkpt lat="45.50339" lon="6.91545">
        <ele>1748.78</ele>
        <time>2011-06-26T08:31:05Z</time>
      </trkpt>
      <trkpt lat="45.50337" lon="6.91547">
        <ele>1748.78</ele>
        <time>2011-06-26T08:31:08Z</time>
      </trkpt>
      <trkpt lat="45.50337" lon="6.91548">
        <ele>1751.18</ele>
        <time>2011-06-26T08:31:10Z</time>
      </trkpt>
      <trkpt lat="45.50338" lon="6.91541">
        <ele>1750.22</ele>
        <time>2011-06-26T08:31:15Z</time>
      </trkpt>
      <trkpt lat="45.50342" lon="6.91535">
        <ele>1755.02</ele>
        <time>2011-06-26T08:31:24Z</time>
      </trkpt>
      <trkpt lat="45.50334" lon="6.91546">
        <ele>1753.58</ele>
        <time>2011-06-26T08:31:37Z</time>
      </trkpt>
      <trkpt lat="45.50335" lon="6.91544">
        <ele>1755.02</ele>
        <time>2011-06-26T08:31:39Z</time>
      </trkpt>
      <trkpt lat="45.50337" lon="6.91539">
        <ele>1757.43</ele>
        <time>2011-06-26T08:31:43Z</time>
      </trkpt>
      <trkpt lat="45.50336" lon="6.91527">
        <ele>1755.5</ele>
        <time>2011-06-26T08:31:49Z</time>
      </trkpt>
      <trkpt lat="45.50339" lon="6.91522">
        <ele>1758.39</ele>
        <time>2011-06-26T08:31:53Z</time>
      </trkpt>
      <trkpt lat="45.50335" lon="6.91517">
        <ele>1759.83</ele>
        <time>2011-06-26T08:31:58Z</time>
      </trkpt>
      <trkpt lat="45.50326" lon="6.91527">
        <ele>1762.71</ele>
        <time>2011-06-26T08:32:11Z</time>
      </trkpt>
      <trkpt lat="45.50318" lon="6.9153">
        <ele>1766.56</ele>
        <time>2011-06-26T08:32:23Z</time>
      </trkpt>
      <trkpt lat="45.50317" lon="6.9153">
        <ele>1766.08</ele>
        <time>2011-06-26T08:32:24Z</time>
      </trkpt>
      <trkpt lat="45.50312" lon="6.91535">
        <ele>1767.52</ele>
        <time>2011-06-26T08:32:33Z</time>
      </trkpt>
      <trkpt lat="45.50307" lon="6.9154">
        <ele>1769.92</ele>
        <time>2011-06-26T08:32:44Z</time>
      </trkpt>
      <trkpt lat="45.50302" lon="6.9154">
        <ele>1771.37</ele>
        <time>2011-06-26T08:32:49Z</time>
      </trkpt>
      <trkpt lat="45.50287" lon="6.9154">
        <ele>1774.25</ele>
        <time>2011-06-26T08:33:06Z</time>
      </trkpt>
      <trkpt lat="45.50279" lon="6.91542">
        <ele>1775.21</ele>
        <time>2011-06-26T08:33:12Z</time>
      </trkpt>
      <trkpt lat="45.50277" lon="6.91542">
        <ele>1776.17</ele>
        <time>2011-06-26T08:33:14Z</time>
      </trkpt>
      <trkpt lat="45.50271" lon="6.91541">
        <ele>1778.1</ele>
        <time>2011-06-26T08:33:23Z</time>
      </trkpt>
      <trkpt lat="45.5026" lon="6.91535">
        <ele>1780.98</ele>
        <time>2011-06-26T08:33:36Z</time>
      </trkpt>
      <trkpt lat="45.5025" lon="6.91536">
        <ele>1784.34</ele>
        <time>2011-06-26T08:33:47Z</time>
      </trkpt>
      <trkpt lat="45.50249" lon="6.91536">
        <ele>1784.34</ele>
        <time>2011-06-26T08:33:48Z</time>
      </trkpt>
      <trkpt lat="45.50246" lon="6.91535">
        <ele>1785.31</ele>
        <time>2011-06-26T08:33:53Z</time>
      </trkpt>
      <trkpt lat="45.5024" lon="6.91534">
        <ele>1786.27</ele>
        <time>2011-06-26T08:34:00Z</time>
      </trkpt>
      <trkpt lat="45.50228" lon="6.91528">
        <ele>1791.07</ele>
        <time>2011-06-26T08:34:17Z</time>
      </trkpt>
      <trkpt lat="45.50223" lon="6.91528">
        <ele>1793</ele>
        <time>2011-06-26T08:34:24Z</time>
      </trkpt>
      <trkpt lat="45.50214" lon="6.91529">
        <ele>1796.36</ele>
        <time>2011-06-26T08:34:40Z</time>
      </trkpt>
      <trkpt lat="45.50207" lon="6.9153">
        <ele>1797.8</ele>
        <time>2011-06-26T08:34:53Z</time>
      </trkpt>
      <trkpt lat="45.502" lon="6.91533">
        <ele>1801.65</ele>
        <time>2011-06-26T08:35:05Z</time>
      </trkpt>
      <trkpt lat="45.50193" lon="6.91536">
        <ele>1803.09</ele>
        <time>2011-06-26T08:35:17Z</time>
      </trkpt>
      <trkpt lat="45.50188" lon="6.91534">
        <ele>1806.94</ele>
        <time>2011-06-26T08:35:29Z</time>
      </trkpt>
      <trkpt lat="45.50182" lon="6.91536">
        <ele>1809.34</ele>
        <time>2011-06-26T08:35:40Z</time>
      </trkpt>
      <trkpt lat="45.50178" lon="6.91536">
        <ele>1811.26</ele>
        <time>2011-06-26T08:35:45Z</time>
      </trkpt>
      <trkpt lat="45.50169" lon="6.91538">
        <ele>1814.15</ele>
        <time>2011-06-26T08:35:58Z</time>
      </trkpt>
      <trkpt lat="45.50163" lon="6.91532">
        <ele>1813.66</ele>
        <time>2011-06-26T08:36:06Z</time>
      </trkpt>
      <trkpt lat="45.50161" lon="6.91532">
        <ele>1816.07</ele>
        <time>2011-06-26T08:36:08Z</time>
      </trkpt>
      <trkpt lat="45.50149" lon="6.9154">
        <ele>1819.43</ele>
        <time>2011-06-26T08:36:21Z</time>
      </trkpt>
      <trkpt lat="45.50133" lon="6.91554">
        <ele>1821.84</ele>
        <time>2011-06-26T08:36:35Z</time>
      </trkpt>
      <trkpt lat="45.5012" lon="6.91559">
        <ele>1824.24</ele>
        <time>2011-06-26T08:36:45Z</time>
      </trkpt>
      <trkpt lat="45.50103" lon="6.9157">
        <ele>1827.12</ele>
        <time>2011-06-26T08:36:59Z</time>
      </trkpt>
      <trkpt lat="45.50098" lon="6.91577">
        <ele>1828.08</ele>
        <time>2011-06-26T08:37:08Z</time>
      </trkpt>
      <trkpt lat="45.50095" lon="6.91588">
        <ele>1830.01</ele>
        <time>2011-06-26T08:37:20Z</time>
      </trkpt>
      <trkpt lat="45.50094" lon="6.9159">
        <ele>1831.93</ele>
        <time>2011-06-26T08:37:27Z</time>
      </trkpt>
      <trkpt lat="45.50093" lon="6.91592">
        <ele>1833.37</ele>
        <time>2011-06-26T08:37:31Z</time>
      </trkpt>
      <trkpt lat="45.50087" lon="6.91605">
        <ele>1834.33</ele>
        <time>2011-06-26T08:37:39Z</time>
      </trkpt>
      <trkpt lat="45.50083" lon="6.91614">
        <ele>1833.37</ele>
        <time>2011-06-26T08:37:44Z</time>
      </trkpt>
      <trkpt lat="45.50083" lon="6.91633">
        <ele>1833.85</ele>
        <time>2011-06-26T08:37:51Z</time>
      </trkpt>
      <trkpt lat="45.50083" lon="6.91647">
        <ele>1833.37</ele>
        <time>2011-06-26T08:37:56Z</time>
      </trkpt>
      <trkpt lat="45.50081" lon="6.91658">
        <ele>1833.85</ele>
        <time>2011-06-26T08:37:59Z</time>
      </trkpt>
      <trkpt lat="45.50062" lon="6.91689">
        <ele>1832.41</ele>
        <time>2011-06-26T08:38:08Z</time>
      </trkpt>
      <trkpt lat="45.50036" lon="6.91724">
        <ele>1831.45</ele>
        <time>2011-06-26T08:38:20Z</time>
      </trkpt>
      <trkpt lat="45.50015" lon="6.9174">
        <ele>1832.89</ele>
        <time>2011-06-26T08:38:30Z</time>
      </trkpt>
      <trkpt lat="45.49996" lon="6.91746">
        <ele>1836.26</ele>
        <time>2011-06-26T08:38:40Z</time>
      </trkpt>
      <trkpt lat="45.49993" lon="6.91746">
        <ele>1836.74</ele>
        <time>2011-06-26T08:38:42Z</time>
      </trkpt>
      <trkpt lat="45.49978" lon="6.9175">
        <ele>1838.66</ele>
        <time>2011-06-26T08:38:51Z</time>
      </trkpt>
      <trkpt lat="45.49962" lon="6.91761">
        <ele>1842.02</ele>
        <time>2011-06-26T08:39:03Z</time>
      </trkpt>
      <trkpt lat="45.49951" lon="6.91772">
        <ele>1842.02</ele>
        <time>2011-06-26T08:39:13Z</time>
      </trkpt>
      <trkpt lat="45.49939" lon="6.91791">
        <ele>1845.39</ele>
        <time>2011-06-26T08:39:25Z</time>
      </trkpt>
      <trkpt lat="45.49915" lon="6.91811">
        <ele>1846.83</ele>
        <time>2011-06-26T08:39:40Z</time>
      </trkpt>
      <trkpt lat="45.49909" lon="6.91815">
        <ele>1845.87</ele>
        <time>2011-06-26T08:39:44Z</time>
      </trkpt>
      <trkpt lat="45.49899" lon="6.91819">
        <ele>1846.83</ele>
        <time>2011-06-26T08:39:49Z</time>
      </trkpt>
      <trkpt lat="45.49867" lon="6.91826">
        <ele>1846.35</ele>
        <time>2011-06-26T08:40:04Z</time>
      </trkpt>
      <trkpt lat="45.49844" lon="6.91829">
        <ele>1847.79</ele>
        <time>2011-06-26T08:40:14Z</time>
      </trkpt>
      <trkpt lat="45.49842" lon="6.91829">
        <ele>1846.83</ele>
        <time>2011-06-26T08:40:15Z</time>
      </trkpt>
      <trkpt lat="45.4982" lon="6.91838">
        <ele>1845.87</ele>
        <time>2011-06-26T08:40:26Z</time>
      </trkpt>
      <trkpt lat="45.49799" lon="6.91851">
        <ele>1842.5</ele>
        <time>2011-06-26T08:40:35Z</time>
      </trkpt>
      <trkpt lat="45.49784" lon="6.91862">
        <ele>1839.14</ele>
        <time>2011-06-26T08:40:42Z</time>
      </trkpt>
      <trkpt lat="45.49763" lon="6.9189">
        <ele>1836.26</ele>
        <time>2011-06-26T08:40:54Z</time>
      </trkpt>
      <trkpt lat="45.49742" lon="6.91899">
        <ele>1832.41</ele>
        <time>2011-06-26T08:41:02Z</time>
      </trkpt>
      <trkpt lat="45.49739" lon="6.91899">
        <ele>1832.41</ele>
        <time>2011-06-26T08:41:03Z</time>
      </trkpt>
      <trkpt lat="45.49737" lon="6.91899">
        <ele>1832.41</ele>
        <time>2011-06-26T08:41:04Z</time>
      </trkpt>
      <trkpt lat="45.49733" lon="6.91899">
        <ele>1833.37</ele>
        <time>2011-06-26T08:41:06Z</time>
      </trkpt>
      <trkpt lat="45.49718" lon="6.91931">
        <ele>1833.37</ele>
        <time>2011-06-26T08:41:18Z</time>
      </trkpt>
      <trkpt lat="45.49694" lon="6.91939">
        <ele>1834.81</ele>
        <time>2011-06-26T08:41:28Z</time>
      </trkpt>
      <trkpt lat="45.49686" lon="6.91936">
        <ele>1836.26</ele>
        <time>2011-06-26T08:41:33Z</time>
      </trkpt>
      <trkpt lat="45.49669" lon="6.91948">
        <ele>1839.62</ele>
        <time>2011-06-26T08:41:45Z</time>
      </trkpt>
      <trkpt lat="45.49668" lon="6.9195">
        <ele>1839.62</ele>
        <time>2011-06-26T08:41:46Z</time>
      </trkpt>
      <trkpt lat="45.49668" lon="6.91956">
        <ele>1840.58</ele>
        <time>2011-06-26T08:41:51Z</time>
      </trkpt>
      <trkpt lat="45.49657" lon="6.91971">
        <ele>1843.47</ele>
        <time>2011-06-26T08:42:07Z</time>
      </trkpt>
      <trkpt lat="45.4964" lon="6.91993">
        <ele>1845.87</ele>
        <time>2011-06-26T08:42:23Z</time>
      </trkpt>
      <trkpt lat="45.49622" lon="6.92009">
        <ele>1846.35</ele>
        <time>2011-06-26T08:42:37Z</time>
      </trkpt>
      <trkpt lat="45.49615" lon="6.92011">
        <ele>1846.35</ele>
        <time>2011-06-26T08:42:42Z</time>
      </trkpt>
      <trkpt lat="45.49601" lon="6.9202">
        <ele>1848.27</ele>
        <time>2011-06-26T08:42:52Z</time>
      </trkpt>
      <trkpt lat="45.49585" lon="6.92041">
        <ele>1850.68</ele>
        <time>2011-06-26T08:43:08Z</time>
      </trkpt>
      <trkpt lat="45.49578" lon="6.92046">
        <ele>1849.71</ele>
        <time>2011-06-26T08:43:13Z</time>
      </trkpt>
      <trkpt lat="45.49559" lon="6.92062">
        <ele>1850.68</ele>
        <time>2011-06-26T08:43:24Z</time>
      </trkpt>
      <trkpt lat="45.49542" lon="6.92075">
        <ele>1853.56</ele>
        <time>2011-06-26T08:43:36Z</time>
      </trkpt>
      <trkpt lat="45.49519" lon="6.92095">
        <ele>1854.04</ele>
        <time>2011-06-26T08:43:49Z</time>
      </trkpt>
      <trkpt lat="45.49502" lon="6.92108">
        <ele>1855.48</ele>
        <time>2011-06-26T08:43:58Z</time>
      </trkpt>
      <trkpt lat="45.49482" lon="6.92115">
        <ele>1856.92</ele>
        <time>2011-06-26T08:44:11Z</time>
      </trkpt>
      <trkpt lat="45.49462" lon="6.92116">
        <ele>1856.44</ele>
        <time>2011-06-26T08:44:25Z</time>
      </trkpt>
      <trkpt lat="45.49442" lon="6.92114">
        <ele>1858.85</ele>
        <time>2011-06-26T08:44:39Z</time>
      </trkpt>
      <trkpt lat="45.49429" lon="6.92116">
        <ele>1861.73</ele>
        <time>2011-06-26T08:44:50Z</time>
      </trkpt>
      <trkpt lat="45.49428" lon="6.92116">
        <ele>1861.25</ele>
        <time>2011-06-26T08:44:51Z</time>
      </trkpt>
      <trkpt lat="45.49424" lon="6.92116">
        <ele>1861.73</ele>
        <time>2011-06-26T08:44:55Z</time>
      </trkpt>
      <trkpt lat="45.49422" lon="6.92117">
        <ele>1862.69</ele>
        <time>2011-06-26T08:44:57Z</time>
      </trkpt>
      <trkpt lat="45.49419" lon="6.92118">
        <ele>1863.17</ele>
        <time>2011-06-26T08:45:00Z</time>
      </trkpt>
      <trkpt lat="45.49417" lon="6.92118">
        <ele>1863.17</ele>
        <time>2011-06-26T08:45:02Z</time>
      </trkpt>
      <trkpt lat="45.49411" lon="6.92121">
        <ele>1865.09</ele>
        <time>2011-06-26T08:45:07Z</time>
      </trkpt>
      <trkpt lat="45.49403" lon="6.92124">
        <ele>1867.02</ele>
        <time>2011-06-26T08:45:14Z</time>
      </trkpt>
      <trkpt lat="45.49389" lon="6.92132">
        <ele>1868.46</ele>
        <time>2011-06-26T08:45:27Z</time>
      </trkpt>
      <trkpt lat="45.49382" lon="6.92133">
        <ele>1871.34</ele>
        <time>2011-06-26T08:45:33Z</time>
      </trkpt>
      <trkpt lat="45.49376" lon="6.92134">
        <ele>1871.82</ele>
        <time>2011-06-26T08:45:39Z</time>
      </trkpt>
      <trkpt lat="45.49361" lon="6.92138">
        <ele>1875.67</ele>
        <time>2011-06-26T08:45:55Z</time>
      </trkpt>
      <trkpt lat="45.49346" lon="6.92144">
        <ele>1878.55</ele>
        <time>2011-06-26T08:46:12Z</time>
      </trkpt>
      <trkpt lat="45.49337" lon="6.92148">
        <ele>1880.96</ele>
        <time>2011-06-26T08:46:22Z</time>
      </trkpt>
      <trkpt lat="45.4933" lon="6.92148">
        <ele>1882.4</ele>
        <time>2011-06-26T08:46:30Z</time>
      </trkpt>
      <trkpt lat="45.49319" lon="6.9215">
        <ele>1885.76</ele>
        <time>2011-06-26T08:46:43Z</time>
      </trkpt>
      <trkpt lat="45.49313" lon="6.9215">
        <ele>1888.17</ele>
        <time>2011-06-26T08:46:50Z</time>
      </trkpt>
      <trkpt lat="45.4931" lon="6.92151">
        <ele>1888.17</ele>
        <time>2011-06-26T08:46:54Z</time>
      </trkpt>
      <trkpt lat="45.49301" lon="6.92154">
        <ele>1892.01</ele>
        <time>2011-06-26T08:47:04Z</time>
      </trkpt>
      <trkpt lat="45.49296" lon="6.92153">
        <ele>1892.01</ele>
        <time>2011-06-26T08:47:10Z</time>
      </trkpt>
      <trkpt lat="45.49294" lon="6.92155">
        <ele>1892.49</ele>
        <time>2011-06-26T08:47:13Z</time>
      </trkpt>
      <trkpt lat="45.49289" lon="6.92154">
        <ele>1894.9</ele>
        <time>2011-06-26T08:47:20Z</time>
      </trkpt>
      <trkpt lat="45.49286" lon="6.92153">
        <ele>1894.42</ele>
        <time>2011-06-26T08:47:23Z</time>
      </trkpt>
      <trkpt lat="45.49284" lon="6.92152">
        <ele>1895.86</ele>
        <time>2011-06-26T08:47:25Z</time>
      </trkpt>
      <trkpt lat="45.49272" lon="6.9215">
        <ele>1899.7</ele>
        <time>2011-06-26T08:47:35Z</time>
      </trkpt>
      <trkpt lat="45.49271" lon="6.9215">
        <ele>1898.26</ele>
        <time>2011-06-26T08:47:36Z</time>
      </trkpt>
      <trkpt lat="45.49261" lon="6.92149">
        <ele>1900.18</ele>
        <time>2011-06-26T08:47:49Z</time>
      </trkpt>
      <trkpt lat="45.49256" lon="6.92149">
        <ele>1902.11</ele>
        <time>2011-06-26T08:47:56Z</time>
      </trkpt>
      <trkpt lat="45.49253" lon="6.92148">
        <ele>1903.55</ele>
        <time>2011-06-26T08:48:00Z</time>
      </trkpt>
      <trkpt lat="45.49246" lon="6.92148">
        <ele>1906.43</ele>
        <time>2011-06-26T08:48:12Z</time>
      </trkpt>
      <trkpt lat="45.49244" lon="6.92148">
        <ele>1906.43</ele>
        <time>2011-06-26T08:48:15Z</time>
      </trkpt>
      <trkpt lat="45.49242" lon="6.92149">
        <ele>1907.87</ele>
        <time>2011-06-26T08:48:18Z</time>
      </trkpt>
      <trkpt lat="45.49235" lon="6.92149">
        <ele>1910.76</ele>
        <time>2011-06-26T08:48:31Z</time>
      </trkpt>
      <trkpt lat="45.49232" lon="6.9215">
        <ele>1911.24</ele>
        <time>2011-06-26T08:48:35Z</time>
      </trkpt>
      <trkpt lat="45.49225" lon="6.9215">
        <ele>1916.53</ele>
        <time>2011-06-26T08:48:45Z</time>
      </trkpt>
      <trkpt lat="45.49225" lon="6.9215">
        <ele>1912.2</ele>
        <time>2011-06-26T08:48:46Z</time>
      </trkpt>
      <trkpt lat="45.49224" lon="6.92149">
        <ele>1915.08</ele>
        <time>2011-06-26T08:48:47Z</time>
      </trkpt>
      <trkpt lat="45.49217" lon="6.92149">
        <ele>1918.93</ele>
        <time>2011-06-26T08:49:01Z</time>
      </trkpt>
      <trkpt lat="45.49212" lon="6.92149">
        <ele>1920.37</ele>
        <time>2011-06-26T08:49:09Z</time>
      </trkpt>
    </trkseg>
  </trk>
</gpx>